<?xml version="1.0" encoding="UTF-8" standalone="no" ?>
<gpx xmlns="http://www.topografix.com/GPX/1/1" xmlns:xsi="http://www.w3.org/2001/XMLSchema-instance" xsi:schemaLocation="http://www.topografix.com/GPX/1/1 http://www.topografix.com/GPX/1/1/gpx.xsd" version="1.1" creator="VisuGPX - https://www.visugpx.com">
  <metadata>
    <name>RSPFY-petite-Houssière</name>
    <desc><![CDATA[boucle de marche nordique au départ du parking de la petite Houssière passant par Fourcherolles, Champ Romery et le bois des Maréchaux.]]></desc>
  </metadata>
  <trk>
    <name><![CDATA[2022-10-06 08:59]]></name>
    <desc><![CDATA[<p>Heure de départ: 08:59 6 oct. 2022<br/>Heure d'arrivée: 11:40 6 oct. 2022<br/>Distance: 12,4 km (02:40)<br/>Temps déplacement: 02:15<br/>Vitesse moyenne: 4,62 km/h<br/>Vitesse moyenne mouv.: 5,46 km/h<br/>Vitesse Max.: 8,08 km/h<br/>Altitude minimale: 106 m<br/>Altitude maximale: 185 m<br/>Vitesse de montée: 213,9 m/h<br/>Vitesse de descente: -285,5 m/h<br/>Gain d'altitude: 315 m<br/>Perte d'altitude: -316 m<br/>Temps de montée: 01:28<br/>Temps de descente: 01:06<br/></p><hr align="center" width="480" style="height: 2px; width: 517px"/>]]></desc>
    <trkseg>
      <trkpt lat="48.69143" lon="1.96025">
        <ele>172.8</ele>
        <time>2022-10-06T06:59:44Z</time>
      </trkpt>
      <trkpt lat="48.69142" lon="1.96011">
        <ele>172.9</ele>
        <time>2022-10-06T07:00:35Z</time>
      </trkpt>
      <trkpt lat="48.69147" lon="1.95999">
        <ele>172.7</ele>
        <time>2022-10-06T07:00:48Z</time>
      </trkpt>
      <trkpt lat="48.69155" lon="1.95991">
        <ele>172.4</ele>
        <time>2022-10-06T07:00:58Z</time>
      </trkpt>
      <trkpt lat="48.69163" lon="1.95982">
        <ele>172.1</ele>
        <time>2022-10-06T07:01:06Z</time>
      </trkpt>
      <trkpt lat="48.69171" lon="1.95974">
        <ele>171.8</ele>
        <time>2022-10-06T07:01:13Z</time>
      </trkpt>
      <trkpt lat="48.69181" lon="1.95968">
        <ele>171.6</ele>
        <time>2022-10-06T07:01:20Z</time>
      </trkpt>
      <trkpt lat="48.69189" lon="1.95962">
        <ele>171.3</ele>
        <time>2022-10-06T07:01:26Z</time>
      </trkpt>
      <trkpt lat="48.69198" lon="1.95955">
        <ele>170.7</ele>
        <time>2022-10-06T07:01:31Z</time>
      </trkpt>
      <trkpt lat="48.69207" lon="1.95947">
        <ele>170.1</ele>
        <time>2022-10-06T07:01:39Z</time>
      </trkpt>
      <trkpt lat="48.69216" lon="1.95948">
        <ele>169.4</ele>
        <time>2022-10-06T07:02:14Z</time>
      </trkpt>
      <trkpt lat="48.69222" lon="1.9596">
        <ele>168.4</ele>
        <time>2022-10-06T07:02:20Z</time>
      </trkpt>
      <trkpt lat="48.69229" lon="1.95971">
        <ele>167.3</ele>
        <time>2022-10-06T07:02:27Z</time>
      </trkpt>
      <trkpt lat="48.69236" lon="1.9598">
        <ele>166.4</ele>
        <time>2022-10-06T07:02:33Z</time>
      </trkpt>
      <trkpt lat="48.69243" lon="1.95989">
        <ele>165.3</ele>
        <time>2022-10-06T07:02:39Z</time>
      </trkpt>
      <trkpt lat="48.69251" lon="1.95998">
        <ele>164</ele>
        <time>2022-10-06T07:02:45Z</time>
      </trkpt>
      <trkpt lat="48.69259" lon="1.96005">
        <ele>162.9</ele>
        <time>2022-10-06T07:02:51Z</time>
      </trkpt>
      <trkpt lat="48.69267" lon="1.96013">
        <ele>161.8</ele>
        <time>2022-10-06T07:02:58Z</time>
      </trkpt>
      <trkpt lat="48.69273" lon="1.96025">
        <ele>160.9</ele>
        <time>2022-10-06T07:03:05Z</time>
      </trkpt>
      <trkpt lat="48.69278" lon="1.96037">
        <ele>160.3</ele>
        <time>2022-10-06T07:03:11Z</time>
      </trkpt>
      <trkpt lat="48.69284" lon="1.96049">
        <ele>159.9</ele>
        <time>2022-10-06T07:03:19Z</time>
      </trkpt>
      <trkpt lat="48.69291" lon="1.9606">
        <ele>159.3</ele>
        <time>2022-10-06T07:03:26Z</time>
      </trkpt>
      <trkpt lat="48.69298" lon="1.96071">
        <ele>158.6</ele>
        <time>2022-10-06T07:03:33Z</time>
      </trkpt>
      <trkpt lat="48.69306" lon="1.9608">
        <ele>157.8</ele>
        <time>2022-10-06T07:03:39Z</time>
      </trkpt>
      <trkpt lat="48.6931" lon="1.96094">
        <ele>157.9</ele>
        <time>2022-10-06T07:03:45Z</time>
      </trkpt>
      <trkpt lat="48.69317" lon="1.96103">
        <ele>157.5</ele>
        <time>2022-10-06T07:03:52Z</time>
      </trkpt>
      <trkpt lat="48.69323" lon="1.96114">
        <ele>157.2</ele>
        <time>2022-10-06T07:03:59Z</time>
      </trkpt>
      <trkpt lat="48.69329" lon="1.96126">
        <ele>156.7</ele>
        <time>2022-10-06T07:04:08Z</time>
      </trkpt>
      <trkpt lat="48.69336" lon="1.96137">
        <ele>155.7</ele>
        <time>2022-10-06T07:04:16Z</time>
      </trkpt>
      <trkpt lat="48.69341" lon="1.96149">
        <ele>155.1</ele>
        <time>2022-10-06T07:04:24Z</time>
      </trkpt>
      <trkpt lat="48.69349" lon="1.96159">
        <ele>154.1</ele>
        <time>2022-10-06T07:04:30Z</time>
      </trkpt>
      <trkpt lat="48.69355" lon="1.96168">
        <ele>153.1</ele>
        <time>2022-10-06T07:04:36Z</time>
      </trkpt>
      <trkpt lat="48.69363" lon="1.96178">
        <ele>151.8</ele>
        <time>2022-10-06T07:04:42Z</time>
      </trkpt>
      <trkpt lat="48.6937" lon="1.96189">
        <ele>150.8</ele>
        <time>2022-10-06T07:04:51Z</time>
      </trkpt>
      <trkpt lat="48.69376" lon="1.96199">
        <ele>149.7</ele>
        <time>2022-10-06T07:04:57Z</time>
      </trkpt>
      <trkpt lat="48.69383" lon="1.9621">
        <ele>148.4</ele>
        <time>2022-10-06T07:05:03Z</time>
      </trkpt>
      <trkpt lat="48.69388" lon="1.96222">
        <ele>147.3</ele>
        <time>2022-10-06T07:05:10Z</time>
      </trkpt>
      <trkpt lat="48.69393" lon="1.96235">
        <ele>147.3</ele>
        <time>2022-10-06T07:05:18Z</time>
      </trkpt>
      <trkpt lat="48.69395" lon="1.96249">
        <ele>147.5</ele>
        <time>2022-10-06T07:05:29Z</time>
      </trkpt>
      <trkpt lat="48.69403" lon="1.96258">
        <ele>147.7</ele>
        <time>2022-10-06T07:05:36Z</time>
      </trkpt>
      <trkpt lat="48.69409" lon="1.9627">
        <ele>147.7</ele>
        <time>2022-10-06T07:05:43Z</time>
      </trkpt>
      <trkpt lat="48.69417" lon="1.96279">
        <ele>148</ele>
        <time>2022-10-06T07:05:50Z</time>
      </trkpt>
      <trkpt lat="48.69423" lon="1.9629">
        <ele>148.6</ele>
        <time>2022-10-06T07:05:57Z</time>
      </trkpt>
      <trkpt lat="48.69429" lon="1.96303">
        <ele>148.8</ele>
        <time>2022-10-06T07:06:04Z</time>
      </trkpt>
      <trkpt lat="48.69435" lon="1.96315">
        <ele>149.5</ele>
        <time>2022-10-06T07:06:10Z</time>
      </trkpt>
      <trkpt lat="48.69442" lon="1.96325">
        <ele>150.6</ele>
        <time>2022-10-06T07:06:18Z</time>
      </trkpt>
      <trkpt lat="48.69449" lon="1.96334">
        <ele>152.1</ele>
        <time>2022-10-06T07:06:25Z</time>
      </trkpt>
      <trkpt lat="48.69455" lon="1.96346">
        <ele>153.8</ele>
        <time>2022-10-06T07:06:32Z</time>
      </trkpt>
      <trkpt lat="48.69462" lon="1.96355">
        <ele>155.9</ele>
        <time>2022-10-06T07:06:38Z</time>
      </trkpt>
      <trkpt lat="48.69467" lon="1.96366">
        <ele>157.8</ele>
        <time>2022-10-06T07:06:45Z</time>
      </trkpt>
      <trkpt lat="48.69474" lon="1.96375">
        <ele>160</ele>
        <time>2022-10-06T07:06:53Z</time>
      </trkpt>
      <trkpt lat="48.69481" lon="1.96385">
        <ele>161.7</ele>
        <time>2022-10-06T07:07:02Z</time>
      </trkpt>
      <trkpt lat="48.69488" lon="1.96395">
        <ele>163.4</ele>
        <time>2022-10-06T07:07:10Z</time>
      </trkpt>
      <trkpt lat="48.69494" lon="1.96407">
        <ele>164.8</ele>
        <time>2022-10-06T07:07:18Z</time>
      </trkpt>
      <trkpt lat="48.69501" lon="1.96416">
        <ele>166.2</ele>
        <time>2022-10-06T07:07:26Z</time>
      </trkpt>
      <trkpt lat="48.69508" lon="1.96427">
        <ele>166.9</ele>
        <time>2022-10-06T07:07:33Z</time>
      </trkpt>
      <trkpt lat="48.69515" lon="1.96437">
        <ele>167.6</ele>
        <time>2022-10-06T07:07:40Z</time>
      </trkpt>
      <trkpt lat="48.69521" lon="1.96448">
        <ele>168.3</ele>
        <time>2022-10-06T07:07:47Z</time>
      </trkpt>
      <trkpt lat="48.69528" lon="1.96458">
        <ele>169</ele>
        <time>2022-10-06T07:07:55Z</time>
      </trkpt>
      <trkpt lat="48.69535" lon="1.96467">
        <ele>169.3</ele>
        <time>2022-10-06T07:08:02Z</time>
      </trkpt>
      <trkpt lat="48.69541" lon="1.96479">
        <ele>169.2</ele>
        <time>2022-10-06T07:08:10Z</time>
      </trkpt>
      <trkpt lat="48.69548" lon="1.96488">
        <ele>169.2</ele>
        <time>2022-10-06T07:08:17Z</time>
      </trkpt>
      <trkpt lat="48.69552" lon="1.96501">
        <ele>168.9</ele>
        <time>2022-10-06T07:08:34Z</time>
      </trkpt>
      <trkpt lat="48.69558" lon="1.96514">
        <ele>168.6</ele>
        <time>2022-10-06T07:08:42Z</time>
      </trkpt>
      <trkpt lat="48.69565" lon="1.96525">
        <ele>168.4</ele>
        <time>2022-10-06T07:08:48Z</time>
      </trkpt>
      <trkpt lat="48.69571" lon="1.96536">
        <ele>168.4</ele>
        <time>2022-10-06T07:08:54Z</time>
      </trkpt>
      <trkpt lat="48.69576" lon="1.9655">
        <ele>168.5</ele>
        <time>2022-10-06T07:09:02Z</time>
      </trkpt>
      <trkpt lat="48.69583" lon="1.9656">
        <ele>168.8</ele>
        <time>2022-10-06T07:09:08Z</time>
      </trkpt>
      <trkpt lat="48.69591" lon="1.96569">
        <ele>168.9</ele>
        <time>2022-10-06T07:09:14Z</time>
      </trkpt>
      <trkpt lat="48.69597" lon="1.9658">
        <ele>169</ele>
        <time>2022-10-06T07:09:22Z</time>
      </trkpt>
      <trkpt lat="48.69603" lon="1.9659">
        <ele>169.5</ele>
        <time>2022-10-06T07:09:27Z</time>
      </trkpt>
      <trkpt lat="48.69609" lon="1.96602">
        <ele>169.8</ele>
        <time>2022-10-06T07:09:34Z</time>
      </trkpt>
      <trkpt lat="48.69616" lon="1.9661">
        <ele>170</ele>
        <time>2022-10-06T07:09:44Z</time>
      </trkpt>
      <trkpt lat="48.69623" lon="1.96618">
        <ele>169.9</ele>
        <time>2022-10-06T07:09:52Z</time>
      </trkpt>
      <trkpt lat="48.69632" lon="1.96623">
        <ele>169.9</ele>
        <time>2022-10-06T07:10:00Z</time>
      </trkpt>
      <trkpt lat="48.69641" lon="1.96626">
        <ele>170</ele>
        <time>2022-10-06T07:10:07Z</time>
      </trkpt>
      <trkpt lat="48.6965" lon="1.96631">
        <ele>170</ele>
        <time>2022-10-06T07:10:14Z</time>
      </trkpt>
      <trkpt lat="48.6966" lon="1.96634">
        <ele>170</ele>
        <time>2022-10-06T07:10:21Z</time>
      </trkpt>
      <trkpt lat="48.69669" lon="1.96638">
        <ele>169.9</ele>
        <time>2022-10-06T07:10:32Z</time>
      </trkpt>
      <trkpt lat="48.69678" lon="1.96643">
        <ele>169.4</ele>
        <time>2022-10-06T07:10:42Z</time>
      </trkpt>
      <trkpt lat="48.69686" lon="1.96648">
        <ele>169</ele>
        <time>2022-10-06T07:10:50Z</time>
      </trkpt>
      <trkpt lat="48.69696" lon="1.96645">
        <ele>168.7</ele>
        <time>2022-10-06T07:10:56Z</time>
      </trkpt>
      <trkpt lat="48.69706" lon="1.96641">
        <ele>168.5</ele>
        <time>2022-10-06T07:11:02Z</time>
      </trkpt>
      <trkpt lat="48.69714" lon="1.96632">
        <ele>168.3</ele>
        <time>2022-10-06T07:11:11Z</time>
      </trkpt>
      <trkpt lat="48.69722" lon="1.96623">
        <ele>168</ele>
        <time>2022-10-06T07:11:16Z</time>
      </trkpt>
      <trkpt lat="48.6973" lon="1.96613">
        <ele>168</ele>
        <time>2022-10-06T07:11:22Z</time>
      </trkpt>
      <trkpt lat="48.69737" lon="1.96604">
        <ele>168.1</ele>
        <time>2022-10-06T07:11:27Z</time>
      </trkpt>
      <trkpt lat="48.69743" lon="1.96592">
        <ele>168.2</ele>
        <time>2022-10-06T07:11:33Z</time>
      </trkpt>
      <trkpt lat="48.69749" lon="1.96579">
        <ele>168.2</ele>
        <time>2022-10-06T07:11:41Z</time>
      </trkpt>
      <trkpt lat="48.69754" lon="1.96566">
        <ele>168.5</ele>
        <time>2022-10-06T07:11:47Z</time>
      </trkpt>
      <trkpt lat="48.69763" lon="1.96559">
        <ele>168.5</ele>
        <time>2022-10-06T07:11:54Z</time>
      </trkpt>
      <trkpt lat="48.69772" lon="1.96561">
        <ele>168.2</ele>
        <time>2022-10-06T07:12:03Z</time>
      </trkpt>
      <trkpt lat="48.69776" lon="1.96574">
        <ele>168</ele>
        <time>2022-10-06T07:12:11Z</time>
      </trkpt>
      <trkpt lat="48.6978" lon="1.96587">
        <ele>167.8</ele>
        <time>2022-10-06T07:12:19Z</time>
      </trkpt>
      <trkpt lat="48.69781" lon="1.96601">
        <ele>167.2</ele>
        <time>2022-10-06T07:12:27Z</time>
      </trkpt>
      <trkpt lat="48.69783" lon="1.96615">
        <ele>166.7</ele>
        <time>2022-10-06T07:12:34Z</time>
      </trkpt>
      <trkpt lat="48.69785" lon="1.96629">
        <ele>166.1</ele>
        <time>2022-10-06T07:12:41Z</time>
      </trkpt>
      <trkpt lat="48.69787" lon="1.96643">
        <ele>165.5</ele>
        <time>2022-10-06T07:12:49Z</time>
      </trkpt>
      <trkpt lat="48.69789" lon="1.96657">
        <ele>165</ele>
        <time>2022-10-06T07:12:55Z</time>
      </trkpt>
      <trkpt lat="48.69789" lon="1.96672">
        <ele>164.2</ele>
        <time>2022-10-06T07:13:01Z</time>
      </trkpt>
      <trkpt lat="48.69792" lon="1.96686">
        <ele>163.1</ele>
        <time>2022-10-06T07:13:07Z</time>
      </trkpt>
      <trkpt lat="48.69797" lon="1.967">
        <ele>161.7</ele>
        <time>2022-10-06T07:13:13Z</time>
      </trkpt>
      <trkpt lat="48.69804" lon="1.96709">
        <ele>160.5</ele>
        <time>2022-10-06T07:13:19Z</time>
      </trkpt>
      <trkpt lat="48.69809" lon="1.9672">
        <ele>159.3</ele>
        <time>2022-10-06T07:13:24Z</time>
      </trkpt>
      <trkpt lat="48.69815" lon="1.96732">
        <ele>158</ele>
        <time>2022-10-06T07:13:30Z</time>
      </trkpt>
      <trkpt lat="48.6982" lon="1.96744">
        <ele>156.3</ele>
        <time>2022-10-06T07:13:36Z</time>
      </trkpt>
      <trkpt lat="48.69826" lon="1.96754">
        <ele>155.1</ele>
        <time>2022-10-06T07:13:44Z</time>
      </trkpt>
      <trkpt lat="48.69835" lon="1.96759">
        <ele>154.7</ele>
        <time>2022-10-06T07:13:52Z</time>
      </trkpt>
      <trkpt lat="48.69843" lon="1.96766">
        <ele>153.5</ele>
        <time>2022-10-06T07:13:59Z</time>
      </trkpt>
      <trkpt lat="48.69849" lon="1.96777">
        <ele>151.5</ele>
        <time>2022-10-06T07:14:06Z</time>
      </trkpt>
      <trkpt lat="48.69857" lon="1.96785">
        <ele>150</ele>
        <time>2022-10-06T07:14:12Z</time>
      </trkpt>
      <trkpt lat="48.69865" lon="1.96794">
        <ele>148.4</ele>
        <time>2022-10-06T07:14:20Z</time>
      </trkpt>
      <trkpt lat="48.69874" lon="1.96799">
        <ele>147.1</ele>
        <time>2022-10-06T07:14:26Z</time>
      </trkpt>
      <trkpt lat="48.69883" lon="1.96804">
        <ele>145.7</ele>
        <time>2022-10-06T07:14:32Z</time>
      </trkpt>
      <trkpt lat="48.69892" lon="1.9681">
        <ele>144.2</ele>
        <time>2022-10-06T07:14:38Z</time>
      </trkpt>
      <trkpt lat="48.699" lon="1.96819">
        <ele>142.5</ele>
        <time>2022-10-06T07:14:44Z</time>
      </trkpt>
      <trkpt lat="48.69909" lon="1.96824">
        <ele>141.4</ele>
        <time>2022-10-06T07:14:52Z</time>
      </trkpt>
      <trkpt lat="48.69918" lon="1.96828">
        <ele>140.5</ele>
        <time>2022-10-06T07:14:57Z</time>
      </trkpt>
      <trkpt lat="48.69928" lon="1.96831">
        <ele>139.5</ele>
        <time>2022-10-06T07:15:03Z</time>
      </trkpt>
      <trkpt lat="48.69936" lon="1.96836">
        <ele>138.4</ele>
        <time>2022-10-06T07:15:16Z</time>
      </trkpt>
      <trkpt lat="48.69945" lon="1.96838">
        <ele>137.6</ele>
        <time>2022-10-06T07:15:22Z</time>
      </trkpt>
      <trkpt lat="48.69955" lon="1.96843">
        <ele>136.3</ele>
        <time>2022-10-06T07:15:28Z</time>
      </trkpt>
      <trkpt lat="48.69963" lon="1.96852">
        <ele>135.1</ele>
        <time>2022-10-06T07:15:34Z</time>
      </trkpt>
      <trkpt lat="48.69972" lon="1.96859">
        <ele>134.1</ele>
        <time>2022-10-06T07:15:40Z</time>
      </trkpt>
      <trkpt lat="48.69979" lon="1.96871">
        <ele>133.7</ele>
        <time>2022-10-06T07:15:47Z</time>
      </trkpt>
      <trkpt lat="48.69983" lon="1.96884">
        <ele>133.5</ele>
        <time>2022-10-06T07:15:53Z</time>
      </trkpt>
      <trkpt lat="48.69986" lon="1.96899">
        <ele>132.9</ele>
        <time>2022-10-06T07:16:01Z</time>
      </trkpt>
      <trkpt lat="48.69986" lon="1.96913">
        <ele>132.2</ele>
        <time>2022-10-06T07:16:09Z</time>
      </trkpt>
      <trkpt lat="48.6999" lon="1.96927">
        <ele>131.7</ele>
        <time>2022-10-06T07:16:16Z</time>
      </trkpt>
      <trkpt lat="48.69993" lon="1.96941">
        <ele>131</ele>
        <time>2022-10-06T07:16:24Z</time>
      </trkpt>
      <trkpt lat="48.69995" lon="1.96955">
        <ele>130.5</ele>
        <time>2022-10-06T07:16:31Z</time>
      </trkpt>
      <trkpt lat="48.69997" lon="1.96971">
        <ele>130</ele>
        <time>2022-10-06T07:16:38Z</time>
      </trkpt>
      <trkpt lat="48.7" lon="1.96985">
        <ele>129.5</ele>
        <time>2022-10-06T07:16:45Z</time>
      </trkpt>
      <trkpt lat="48.70002" lon="1.97">
        <ele>128.9</ele>
        <time>2022-10-06T07:16:52Z</time>
      </trkpt>
      <trkpt lat="48.70004" lon="1.97015">
        <ele>127.7</ele>
        <time>2022-10-06T07:16:59Z</time>
      </trkpt>
      <trkpt lat="48.70003" lon="1.97028">
        <ele>126.9</ele>
        <time>2022-10-06T07:17:08Z</time>
      </trkpt>
      <trkpt lat="48.70004" lon="1.97043">
        <ele>126.2</ele>
        <time>2022-10-06T07:17:14Z</time>
      </trkpt>
      <trkpt lat="48.70007" lon="1.97059">
        <ele>125.3</ele>
        <time>2022-10-06T07:17:20Z</time>
      </trkpt>
      <trkpt lat="48.70009" lon="1.97073">
        <ele>124.3</ele>
        <time>2022-10-06T07:17:25Z</time>
      </trkpt>
      <trkpt lat="48.70011" lon="1.97088">
        <ele>123.3</ele>
        <time>2022-10-06T07:17:31Z</time>
      </trkpt>
      <trkpt lat="48.70014" lon="1.97102">
        <ele>122.5</ele>
        <time>2022-10-06T07:17:36Z</time>
      </trkpt>
      <trkpt lat="48.70018" lon="1.97117">
        <ele>121.4</ele>
        <time>2022-10-06T07:17:42Z</time>
      </trkpt>
      <trkpt lat="48.70022" lon="1.9713">
        <ele>120.6</ele>
        <time>2022-10-06T07:17:47Z</time>
      </trkpt>
      <trkpt lat="48.70024" lon="1.97145">
        <ele>119.7</ele>
        <time>2022-10-06T07:17:55Z</time>
      </trkpt>
      <trkpt lat="48.70026" lon="1.97159">
        <ele>118.6</ele>
        <time>2022-10-06T07:18:02Z</time>
      </trkpt>
      <trkpt lat="48.70031" lon="1.97171">
        <ele>117.7</ele>
        <time>2022-10-06T07:18:07Z</time>
      </trkpt>
      <trkpt lat="48.70037" lon="1.97183">
        <ele>117.1</ele>
        <time>2022-10-06T07:18:14Z</time>
      </trkpt>
      <trkpt lat="48.70044" lon="1.97194">
        <ele>116.4</ele>
        <time>2022-10-06T07:18:21Z</time>
      </trkpt>
      <trkpt lat="48.70048" lon="1.97206">
        <ele>115.8</ele>
        <time>2022-10-06T07:18:26Z</time>
      </trkpt>
      <trkpt lat="48.70054" lon="1.97219">
        <ele>115.2</ele>
        <time>2022-10-06T07:18:32Z</time>
      </trkpt>
      <trkpt lat="48.70061" lon="1.9723">
        <ele>114.5</ele>
        <time>2022-10-06T07:18:39Z</time>
      </trkpt>
      <trkpt lat="48.70066" lon="1.97243">
        <ele>113.9</ele>
        <time>2022-10-06T07:18:45Z</time>
      </trkpt>
      <trkpt lat="48.70069" lon="1.97257">
        <ele>113.2</ele>
        <time>2022-10-06T07:18:52Z</time>
      </trkpt>
      <trkpt lat="48.70075" lon="1.97269">
        <ele>112.6</ele>
        <time>2022-10-06T07:18:57Z</time>
      </trkpt>
      <trkpt lat="48.70079" lon="1.97283">
        <ele>112</ele>
        <time>2022-10-06T07:19:05Z</time>
      </trkpt>
      <trkpt lat="48.70084" lon="1.97297">
        <ele>111.3</ele>
        <time>2022-10-06T07:19:12Z</time>
      </trkpt>
      <trkpt lat="48.70089" lon="1.9731">
        <ele>110.8</ele>
        <time>2022-10-06T07:19:19Z</time>
      </trkpt>
      <trkpt lat="48.70095" lon="1.97321">
        <ele>110.6</ele>
        <time>2022-10-06T07:19:26Z</time>
      </trkpt>
      <trkpt lat="48.70102" lon="1.97332">
        <ele>110.3</ele>
        <time>2022-10-06T07:19:32Z</time>
      </trkpt>
      <trkpt lat="48.70108" lon="1.97344">
        <ele>109.8</ele>
        <time>2022-10-06T07:19:39Z</time>
      </trkpt>
      <trkpt lat="48.70114" lon="1.97356">
        <ele>109.1</ele>
        <time>2022-10-06T07:19:46Z</time>
      </trkpt>
      <trkpt lat="48.70121" lon="1.97367">
        <ele>108.4</ele>
        <time>2022-10-06T07:19:53Z</time>
      </trkpt>
      <trkpt lat="48.70129" lon="1.97377">
        <ele>107.8</ele>
        <time>2022-10-06T07:20:00Z</time>
      </trkpt>
      <trkpt lat="48.70137" lon="1.97389">
        <ele>107.1</ele>
        <time>2022-10-06T07:20:06Z</time>
      </trkpt>
      <trkpt lat="48.70144" lon="1.97399">
        <ele>106.9</ele>
        <time>2022-10-06T07:20:12Z</time>
      </trkpt>
      <trkpt lat="48.70147" lon="1.97413">
        <ele>106.7</ele>
        <time>2022-10-06T07:20:21Z</time>
      </trkpt>
      <trkpt lat="48.70156" lon="1.97421">
        <ele>106.2</ele>
        <time>2022-10-06T07:20:28Z</time>
      </trkpt>
      <trkpt lat="48.70164" lon="1.9743">
        <ele>105.6</ele>
        <time>2022-10-06T07:20:35Z</time>
      </trkpt>
      <trkpt lat="48.70173" lon="1.97435">
        <ele>105.5</ele>
        <time>2022-10-06T07:20:42Z</time>
      </trkpt>
      <trkpt lat="48.70182" lon="1.97439">
        <ele>105.6</ele>
        <time>2022-10-06T07:20:50Z</time>
      </trkpt>
      <trkpt lat="48.7019" lon="1.97444">
        <ele>105.9</ele>
        <time>2022-10-06T07:21:14Z</time>
      </trkpt>
      <trkpt lat="48.70195" lon="1.97431">
        <ele>106.1</ele>
        <time>2022-10-06T07:21:25Z</time>
      </trkpt>
      <trkpt lat="48.70201" lon="1.97419">
        <ele>106.7</ele>
        <time>2022-10-06T07:21:32Z</time>
      </trkpt>
      <trkpt lat="48.70206" lon="1.97406">
        <ele>107.1</ele>
        <time>2022-10-06T07:21:40Z</time>
      </trkpt>
      <trkpt lat="48.70212" lon="1.97394">
        <ele>107.4</ele>
        <time>2022-10-06T07:21:46Z</time>
      </trkpt>
      <trkpt lat="48.7022" lon="1.97386">
        <ele>107.7</ele>
        <time>2022-10-06T07:21:54Z</time>
      </trkpt>
      <trkpt lat="48.70229" lon="1.97385">
        <ele>108.6</ele>
        <time>2022-10-06T07:22:02Z</time>
      </trkpt>
      <trkpt lat="48.70238" lon="1.97384">
        <ele>109.6</ele>
        <time>2022-10-06T07:22:10Z</time>
      </trkpt>
      <trkpt lat="48.70248" lon="1.97385">
        <ele>110.7</ele>
        <time>2022-10-06T07:22:20Z</time>
      </trkpt>
      <trkpt lat="48.70258" lon="1.97384">
        <ele>112.8</ele>
        <time>2022-10-06T07:22:28Z</time>
      </trkpt>
      <trkpt lat="48.70267" lon="1.97388">
        <ele>115.2</ele>
        <time>2022-10-06T07:22:34Z</time>
      </trkpt>
      <trkpt lat="48.70274" lon="1.97379">
        <ele>116.4</ele>
        <time>2022-10-06T07:22:45Z</time>
      </trkpt>
      <trkpt lat="48.70279" lon="1.97367">
        <ele>117</ele>
        <time>2022-10-06T07:22:58Z</time>
      </trkpt>
      <trkpt lat="48.70288" lon="1.97363">
        <ele>119.9</ele>
        <time>2022-10-06T07:23:10Z</time>
      </trkpt>
      <trkpt lat="48.70295" lon="1.97372">
        <ele>122.8</ele>
        <time>2022-10-06T07:23:22Z</time>
      </trkpt>
      <trkpt lat="48.70303" lon="1.97382">
        <ele>125.8</ele>
        <time>2022-10-06T07:23:33Z</time>
      </trkpt>
      <trkpt lat="48.70312" lon="1.97385">
        <ele>129.7</ele>
        <time>2022-10-06T07:23:45Z</time>
      </trkpt>
      <trkpt lat="48.7032" lon="1.97376">
        <ele>133.1</ele>
        <time>2022-10-06T07:24:00Z</time>
      </trkpt>
      <trkpt lat="48.70324" lon="1.97364">
        <ele>134.9</ele>
        <time>2022-10-06T07:24:14Z</time>
      </trkpt>
      <trkpt lat="48.70329" lon="1.97352">
        <ele>136.3</ele>
        <time>2022-10-06T07:24:27Z</time>
      </trkpt>
      <trkpt lat="48.70336" lon="1.97344">
        <ele>139.2</ele>
        <time>2022-10-06T07:24:36Z</time>
      </trkpt>
      <trkpt lat="48.70344" lon="1.97335">
        <ele>142.1</ele>
        <time>2022-10-06T07:24:46Z</time>
      </trkpt>
      <trkpt lat="48.70353" lon="1.97329">
        <ele>145.9</ele>
        <time>2022-10-06T07:24:57Z</time>
      </trkpt>
      <trkpt lat="48.70361" lon="1.97321">
        <ele>148.8</ele>
        <time>2022-10-06T07:25:06Z</time>
      </trkpt>
      <trkpt lat="48.70367" lon="1.9731">
        <ele>150.4</ele>
        <time>2022-10-06T07:25:16Z</time>
      </trkpt>
      <trkpt lat="48.70373" lon="1.97299">
        <ele>152.1</ele>
        <time>2022-10-06T07:25:24Z</time>
      </trkpt>
      <trkpt lat="48.70379" lon="1.97289">
        <ele>154.2</ele>
        <time>2022-10-06T07:25:32Z</time>
      </trkpt>
      <trkpt lat="48.70385" lon="1.97277">
        <ele>155.7</ele>
        <time>2022-10-06T07:25:41Z</time>
      </trkpt>
      <trkpt lat="48.70391" lon="1.97267">
        <ele>157.3</ele>
        <time>2022-10-06T07:25:50Z</time>
      </trkpt>
      <trkpt lat="48.70398" lon="1.97257">
        <ele>158.3</ele>
        <time>2022-10-06T07:26:00Z</time>
      </trkpt>
      <trkpt lat="48.70407" lon="1.97249">
        <ele>159.6</ele>
        <time>2022-10-06T07:26:08Z</time>
      </trkpt>
      <trkpt lat="48.70416" lon="1.97248">
        <ele>161</ele>
        <time>2022-10-06T07:27:08Z</time>
      </trkpt>
      <trkpt lat="48.70425" lon="1.97242">
        <ele>161.8</ele>
        <time>2022-10-06T07:30:31Z</time>
      </trkpt>
      <trkpt lat="48.70435" lon="1.9724">
        <ele>162.5</ele>
        <time>2022-10-06T07:30:38Z</time>
      </trkpt>
      <trkpt lat="48.70445" lon="1.97238">
        <ele>163</ele>
        <time>2022-10-06T07:30:44Z</time>
      </trkpt>
      <trkpt lat="48.70454" lon="1.97235">
        <ele>163.4</ele>
        <time>2022-10-06T07:30:49Z</time>
      </trkpt>
      <trkpt lat="48.70463" lon="1.9723">
        <ele>163.7</ele>
        <time>2022-10-06T07:30:55Z</time>
      </trkpt>
      <trkpt lat="48.70473" lon="1.97226">
        <ele>164</ele>
        <time>2022-10-06T07:31:01Z</time>
      </trkpt>
      <trkpt lat="48.70482" lon="1.97224">
        <ele>163.6</ele>
        <time>2022-10-06T07:31:07Z</time>
      </trkpt>
      <trkpt lat="48.70491" lon="1.97221">
        <ele>163.3</ele>
        <time>2022-10-06T07:31:12Z</time>
      </trkpt>
      <trkpt lat="48.70501" lon="1.97219">
        <ele>163.1</ele>
        <time>2022-10-06T07:31:18Z</time>
      </trkpt>
      <trkpt lat="48.70511" lon="1.97214">
        <ele>162.9</ele>
        <time>2022-10-06T07:31:26Z</time>
      </trkpt>
      <trkpt lat="48.7052" lon="1.97209">
        <ele>162.8</ele>
        <time>2022-10-06T07:31:31Z</time>
      </trkpt>
      <trkpt lat="48.70529" lon="1.97204">
        <ele>162.6</ele>
        <time>2022-10-06T07:31:37Z</time>
      </trkpt>
      <trkpt lat="48.70539" lon="1.97201">
        <ele>162.1</ele>
        <time>2022-10-06T07:31:44Z</time>
      </trkpt>
      <trkpt lat="48.70548" lon="1.97198">
        <ele>161.5</ele>
        <time>2022-10-06T07:31:50Z</time>
      </trkpt>
      <trkpt lat="48.70558" lon="1.97195">
        <ele>160.9</ele>
        <time>2022-10-06T07:31:56Z</time>
      </trkpt>
      <trkpt lat="48.70567" lon="1.9719">
        <ele>160.8</ele>
        <time>2022-10-06T07:32:04Z</time>
      </trkpt>
      <trkpt lat="48.70576" lon="1.97183">
        <ele>160.7</ele>
        <time>2022-10-06T07:32:27Z</time>
      </trkpt>
      <trkpt lat="48.70585" lon="1.97183">
        <ele>160.4</ele>
        <time>2022-10-06T07:32:33Z</time>
      </trkpt>
      <trkpt lat="48.70594" lon="1.97185">
        <ele>160.2</ele>
        <time>2022-10-06T07:32:40Z</time>
      </trkpt>
      <trkpt lat="48.70604" lon="1.97183">
        <ele>160.1</ele>
        <time>2022-10-06T07:32:47Z</time>
      </trkpt>
      <trkpt lat="48.70613" lon="1.97184">
        <ele>160</ele>
        <time>2022-10-06T07:32:53Z</time>
      </trkpt>
      <trkpt lat="48.70624" lon="1.97187">
        <ele>159.7</ele>
        <time>2022-10-06T07:32:59Z</time>
      </trkpt>
      <trkpt lat="48.70634" lon="1.97189">
        <ele>159.4</ele>
        <time>2022-10-06T07:33:06Z</time>
      </trkpt>
      <trkpt lat="48.70643" lon="1.97191">
        <ele>159.1</ele>
        <time>2022-10-06T07:33:14Z</time>
      </trkpt>
      <trkpt lat="48.70653" lon="1.97192">
        <ele>159</ele>
        <time>2022-10-06T07:33:21Z</time>
      </trkpt>
      <trkpt lat="48.70663" lon="1.97194">
        <ele>159</ele>
        <time>2022-10-06T07:33:27Z</time>
      </trkpt>
      <trkpt lat="48.70673" lon="1.97195">
        <ele>159</ele>
        <time>2022-10-06T07:33:34Z</time>
      </trkpt>
      <trkpt lat="48.70683" lon="1.97195">
        <ele>159</ele>
        <time>2022-10-06T07:33:40Z</time>
      </trkpt>
      <trkpt lat="48.70692" lon="1.97195">
        <ele>159</ele>
        <time>2022-10-06T07:33:47Z</time>
      </trkpt>
      <trkpt lat="48.70701" lon="1.97195">
        <ele>158.7</ele>
        <time>2022-10-06T07:33:54Z</time>
      </trkpt>
      <trkpt lat="48.7071" lon="1.97195">
        <ele>158.4</ele>
        <time>2022-10-06T07:34:02Z</time>
      </trkpt>
      <trkpt lat="48.7072" lon="1.97189">
        <ele>158.1</ele>
        <time>2022-10-06T07:34:09Z</time>
      </trkpt>
      <trkpt lat="48.70711" lon="1.97186">
        <ele>158.4</ele>
        <time>2022-10-06T07:34:32Z</time>
      </trkpt>
      <trkpt lat="48.70705" lon="1.97175">
        <ele>158.6</ele>
        <time>2022-10-06T07:34:41Z</time>
      </trkpt>
      <trkpt lat="48.70696" lon="1.97166">
        <ele>158.9</ele>
        <time>2022-10-06T07:34:49Z</time>
      </trkpt>
      <trkpt lat="48.70689" lon="1.97159">
        <ele>159.1</ele>
        <time>2022-10-06T07:34:57Z</time>
      </trkpt>
      <trkpt lat="48.70682" lon="1.97147">
        <ele>159.3</ele>
        <time>2022-10-06T07:35:04Z</time>
      </trkpt>
      <trkpt lat="48.70676" lon="1.97136">
        <ele>159.7</ele>
        <time>2022-10-06T07:35:11Z</time>
      </trkpt>
      <trkpt lat="48.7067" lon="1.97126">
        <ele>159.9</ele>
        <time>2022-10-06T07:35:17Z</time>
      </trkpt>
      <trkpt lat="48.70664" lon="1.97113">
        <ele>160</ele>
        <time>2022-10-06T07:35:24Z</time>
      </trkpt>
      <trkpt lat="48.70657" lon="1.97103">
        <ele>160</ele>
        <time>2022-10-06T07:35:30Z</time>
      </trkpt>
      <trkpt lat="48.7065" lon="1.97094">
        <ele>160</ele>
        <time>2022-10-06T07:35:36Z</time>
      </trkpt>
      <trkpt lat="48.70647" lon="1.97079">
        <ele>160</ele>
        <time>2022-10-06T07:35:44Z</time>
      </trkpt>
      <trkpt lat="48.70644" lon="1.97066">
        <ele>160</ele>
        <time>2022-10-06T07:35:50Z</time>
      </trkpt>
      <trkpt lat="48.7064" lon="1.97053">
        <ele>160.1</ele>
        <time>2022-10-06T07:35:56Z</time>
      </trkpt>
      <trkpt lat="48.70638" lon="1.97039">
        <ele>160.6</ele>
        <time>2022-10-06T07:36:02Z</time>
      </trkpt>
      <trkpt lat="48.70639" lon="1.97026">
        <ele>161</ele>
        <time>2022-10-06T07:36:09Z</time>
      </trkpt>
      <trkpt lat="48.70642" lon="1.97011">
        <ele>160.9</ele>
        <time>2022-10-06T07:36:16Z</time>
      </trkpt>
      <trkpt lat="48.70648" lon="1.96998">
        <ele>160.7</ele>
        <time>2022-10-06T07:36:23Z</time>
      </trkpt>
      <trkpt lat="48.70653" lon="1.96985">
        <ele>160.8</ele>
        <time>2022-10-06T07:36:29Z</time>
      </trkpt>
      <trkpt lat="48.70659" lon="1.96971">
        <ele>161</ele>
        <time>2022-10-06T07:36:35Z</time>
      </trkpt>
      <trkpt lat="48.70665" lon="1.96958">
        <ele>161</ele>
        <time>2022-10-06T07:36:41Z</time>
      </trkpt>
      <trkpt lat="48.70667" lon="1.96942">
        <ele>161</ele>
        <time>2022-10-06T07:36:48Z</time>
      </trkpt>
      <trkpt lat="48.70671" lon="1.96929">
        <ele>161.4</ele>
        <time>2022-10-06T07:36:54Z</time>
      </trkpt>
      <trkpt lat="48.70675" lon="1.96916">
        <ele>161.7</ele>
        <time>2022-10-06T07:37:01Z</time>
      </trkpt>
      <trkpt lat="48.70679" lon="1.96902">
        <ele>161.5</ele>
        <time>2022-10-06T07:37:08Z</time>
      </trkpt>
      <trkpt lat="48.70683" lon="1.96887">
        <ele>161.4</ele>
        <time>2022-10-06T07:37:14Z</time>
      </trkpt>
      <trkpt lat="48.70688" lon="1.96873">
        <ele>161.7</ele>
        <time>2022-10-06T07:37:20Z</time>
      </trkpt>
      <trkpt lat="48.70693" lon="1.96859">
        <ele>162</ele>
        <time>2022-10-06T07:37:26Z</time>
      </trkpt>
      <trkpt lat="48.70699" lon="1.96846">
        <ele>161.9</ele>
        <time>2022-10-06T07:37:32Z</time>
      </trkpt>
      <trkpt lat="48.70704" lon="1.96834">
        <ele>161.7</ele>
        <time>2022-10-06T07:37:38Z</time>
      </trkpt>
      <trkpt lat="48.70709" lon="1.96821">
        <ele>161.7</ele>
        <time>2022-10-06T07:37:44Z</time>
      </trkpt>
      <trkpt lat="48.70713" lon="1.96807">
        <ele>162</ele>
        <time>2022-10-06T07:37:51Z</time>
      </trkpt>
      <trkpt lat="48.70718" lon="1.96796">
        <ele>162.1</ele>
        <time>2022-10-06T07:37:57Z</time>
      </trkpt>
      <trkpt lat="48.70723" lon="1.96782">
        <ele>162</ele>
        <time>2022-10-06T07:38:04Z</time>
      </trkpt>
      <trkpt lat="48.70728" lon="1.96769">
        <ele>161.9</ele>
        <time>2022-10-06T07:38:10Z</time>
      </trkpt>
      <trkpt lat="48.70733" lon="1.96756">
        <ele>161.9</ele>
        <time>2022-10-06T07:38:16Z</time>
      </trkpt>
      <trkpt lat="48.70738" lon="1.96744">
        <ele>162.2</ele>
        <time>2022-10-06T07:38:22Z</time>
      </trkpt>
      <trkpt lat="48.70743" lon="1.96732">
        <ele>162.6</ele>
        <time>2022-10-06T07:38:28Z</time>
      </trkpt>
      <trkpt lat="48.70748" lon="1.96719">
        <ele>163</ele>
        <time>2022-10-06T07:38:34Z</time>
      </trkpt>
      <trkpt lat="48.70752" lon="1.96706">
        <ele>162.9</ele>
        <time>2022-10-06T07:38:41Z</time>
      </trkpt>
      <trkpt lat="48.70757" lon="1.96693">
        <ele>162.7</ele>
        <time>2022-10-06T07:38:48Z</time>
      </trkpt>
      <trkpt lat="48.70761" lon="1.9668">
        <ele>162.8</ele>
        <time>2022-10-06T07:38:54Z</time>
      </trkpt>
      <trkpt lat="48.70765" lon="1.96667">
        <ele>163</ele>
        <time>2022-10-06T07:39:00Z</time>
      </trkpt>
      <trkpt lat="48.7077" lon="1.96653">
        <ele>163</ele>
        <time>2022-10-06T07:39:06Z</time>
      </trkpt>
      <trkpt lat="48.70775" lon="1.96642">
        <ele>163</ele>
        <time>2022-10-06T07:39:12Z</time>
      </trkpt>
      <trkpt lat="48.70779" lon="1.96629">
        <ele>163</ele>
        <time>2022-10-06T07:39:18Z</time>
      </trkpt>
      <trkpt lat="48.70782" lon="1.96615">
        <ele>162.8</ele>
        <time>2022-10-06T07:39:25Z</time>
      </trkpt>
      <trkpt lat="48.70784" lon="1.96601">
        <ele>162.9</ele>
        <time>2022-10-06T07:39:31Z</time>
      </trkpt>
      <trkpt lat="48.70787" lon="1.96588">
        <ele>162.9</ele>
        <time>2022-10-06T07:39:37Z</time>
      </trkpt>
      <trkpt lat="48.7079" lon="1.96573">
        <ele>163</ele>
        <time>2022-10-06T07:39:43Z</time>
      </trkpt>
      <trkpt lat="48.70792" lon="1.96559">
        <ele>163</ele>
        <time>2022-10-06T07:39:49Z</time>
      </trkpt>
      <trkpt lat="48.70795" lon="1.96544">
        <ele>163.1</ele>
        <time>2022-10-06T07:39:56Z</time>
      </trkpt>
      <trkpt lat="48.70798" lon="1.96531">
        <ele>163.2</ele>
        <time>2022-10-06T07:40:02Z</time>
      </trkpt>
      <trkpt lat="48.70801" lon="1.96518">
        <ele>163.2</ele>
        <time>2022-10-06T07:40:08Z</time>
      </trkpt>
      <trkpt lat="48.70803" lon="1.96504">
        <ele>163.1</ele>
        <time>2022-10-06T07:40:14Z</time>
      </trkpt>
      <trkpt lat="48.70806" lon="1.96491">
        <ele>163.3</ele>
        <time>2022-10-06T07:40:20Z</time>
      </trkpt>
      <trkpt lat="48.70808" lon="1.96477">
        <ele>163.8</ele>
        <time>2022-10-06T07:40:26Z</time>
      </trkpt>
      <trkpt lat="48.7081" lon="1.96463">
        <ele>163.8</ele>
        <time>2022-10-06T07:40:32Z</time>
      </trkpt>
      <trkpt lat="48.70813" lon="1.96448">
        <ele>163.7</ele>
        <time>2022-10-06T07:40:39Z</time>
      </trkpt>
      <trkpt lat="48.70816" lon="1.96434">
        <ele>163.8</ele>
        <time>2022-10-06T07:40:45Z</time>
      </trkpt>
      <trkpt lat="48.70819" lon="1.9642">
        <ele>164</ele>
        <time>2022-10-06T07:40:51Z</time>
      </trkpt>
      <trkpt lat="48.70821" lon="1.96404">
        <ele>164.2</ele>
        <time>2022-10-06T07:40:58Z</time>
      </trkpt>
      <trkpt lat="48.70825" lon="1.96391">
        <ele>164.3</ele>
        <time>2022-10-06T07:41:04Z</time>
      </trkpt>
      <trkpt lat="48.70827" lon="1.96377">
        <ele>164.2</ele>
        <time>2022-10-06T07:41:10Z</time>
      </trkpt>
      <trkpt lat="48.7083" lon="1.96364">
        <ele>164.1</ele>
        <time>2022-10-06T07:41:16Z</time>
      </trkpt>
      <trkpt lat="48.70832" lon="1.9635">
        <ele>164</ele>
        <time>2022-10-06T07:41:22Z</time>
      </trkpt>
      <trkpt lat="48.70834" lon="1.96335">
        <ele>164</ele>
        <time>2022-10-06T07:41:28Z</time>
      </trkpt>
      <trkpt lat="48.70838" lon="1.96322">
        <ele>164.3</ele>
        <time>2022-10-06T07:41:34Z</time>
      </trkpt>
      <trkpt lat="48.70842" lon="1.96309">
        <ele>164.6</ele>
        <time>2022-10-06T07:41:40Z</time>
      </trkpt>
      <trkpt lat="48.70846" lon="1.96295">
        <ele>164.6</ele>
        <time>2022-10-06T07:41:46Z</time>
      </trkpt>
      <trkpt lat="48.7085" lon="1.96283">
        <ele>164.4</ele>
        <time>2022-10-06T07:41:52Z</time>
      </trkpt>
      <trkpt lat="48.70853" lon="1.96269">
        <ele>164.3</ele>
        <time>2022-10-06T07:41:58Z</time>
      </trkpt>
      <trkpt lat="48.70857" lon="1.96256">
        <ele>164.1</ele>
        <time>2022-10-06T07:42:05Z</time>
      </trkpt>
      <trkpt lat="48.70862" lon="1.96244">
        <ele>164.2</ele>
        <time>2022-10-06T07:42:11Z</time>
      </trkpt>
      <trkpt lat="48.70867" lon="1.9623">
        <ele>164.6</ele>
        <time>2022-10-06T07:42:18Z</time>
      </trkpt>
      <trkpt lat="48.7087" lon="1.96216">
        <ele>164.7</ele>
        <time>2022-10-06T07:42:25Z</time>
      </trkpt>
      <trkpt lat="48.70875" lon="1.96202">
        <ele>164.5</ele>
        <time>2022-10-06T07:42:32Z</time>
      </trkpt>
      <trkpt lat="48.70879" lon="1.9619">
        <ele>164.3</ele>
        <time>2022-10-06T07:42:39Z</time>
      </trkpt>
      <trkpt lat="48.70884" lon="1.96177">
        <ele>164.2</ele>
        <time>2022-10-06T07:42:48Z</time>
      </trkpt>
      <trkpt lat="48.70889" lon="1.96164">
        <ele>164.1</ele>
        <time>2022-10-06T07:42:57Z</time>
      </trkpt>
      <trkpt lat="48.70892" lon="1.96152">
        <ele>164.4</ele>
        <time>2022-10-06T07:43:08Z</time>
      </trkpt>
      <trkpt lat="48.70896" lon="1.96137">
        <ele>164.5</ele>
        <time>2022-10-06T07:44:49Z</time>
      </trkpt>
      <trkpt lat="48.70891" lon="1.96124">
        <ele>164.9</ele>
        <time>2022-10-06T07:44:57Z</time>
      </trkpt>
      <trkpt lat="48.70884" lon="1.96113">
        <ele>165</ele>
        <time>2022-10-06T07:45:05Z</time>
      </trkpt>
      <trkpt lat="48.70875" lon="1.96105">
        <ele>165</ele>
        <time>2022-10-06T07:45:13Z</time>
      </trkpt>
      <trkpt lat="48.70868" lon="1.96097">
        <ele>165</ele>
        <time>2022-10-06T07:45:20Z</time>
      </trkpt>
      <trkpt lat="48.7086" lon="1.96091">
        <ele>165</ele>
        <time>2022-10-06T07:45:26Z</time>
      </trkpt>
      <trkpt lat="48.70851" lon="1.96082">
        <ele>165.4</ele>
        <time>2022-10-06T07:45:33Z</time>
      </trkpt>
      <trkpt lat="48.70844" lon="1.96074">
        <ele>165.6</ele>
        <time>2022-10-06T07:45:40Z</time>
      </trkpt>
      <trkpt lat="48.70837" lon="1.96064">
        <ele>165.9</ele>
        <time>2022-10-06T07:45:47Z</time>
      </trkpt>
      <trkpt lat="48.70831" lon="1.96053">
        <ele>166.1</ele>
        <time>2022-10-06T07:45:55Z</time>
      </trkpt>
      <trkpt lat="48.70824" lon="1.96045">
        <ele>166.4</ele>
        <time>2022-10-06T07:46:02Z</time>
      </trkpt>
      <trkpt lat="48.70815" lon="1.96037">
        <ele>166.7</ele>
        <time>2022-10-06T07:46:09Z</time>
      </trkpt>
      <trkpt lat="48.70806" lon="1.96029">
        <ele>167</ele>
        <time>2022-10-06T07:46:16Z</time>
      </trkpt>
      <trkpt lat="48.70799" lon="1.9602">
        <ele>167.2</ele>
        <time>2022-10-06T07:46:22Z</time>
      </trkpt>
      <trkpt lat="48.70791" lon="1.96011">
        <ele>167.5</ele>
        <time>2022-10-06T07:46:30Z</time>
      </trkpt>
      <trkpt lat="48.70784" lon="1.96002">
        <ele>167.8</ele>
        <time>2022-10-06T07:46:37Z</time>
      </trkpt>
      <trkpt lat="48.70777" lon="1.95993">
        <ele>168</ele>
        <time>2022-10-06T07:46:43Z</time>
      </trkpt>
      <trkpt lat="48.70769" lon="1.95987">
        <ele>168.3</ele>
        <time>2022-10-06T07:46:49Z</time>
      </trkpt>
      <trkpt lat="48.70761" lon="1.95979">
        <ele>168.6</ele>
        <time>2022-10-06T07:46:59Z</time>
      </trkpt>
      <trkpt lat="48.70755" lon="1.95968">
        <ele>168.8</ele>
        <time>2022-10-06T07:47:07Z</time>
      </trkpt>
      <trkpt lat="48.70748" lon="1.95959">
        <ele>169.1</ele>
        <time>2022-10-06T07:47:14Z</time>
      </trkpt>
      <trkpt lat="48.70739" lon="1.95954">
        <ele>169.4</ele>
        <time>2022-10-06T07:47:21Z</time>
      </trkpt>
      <trkpt lat="48.7073" lon="1.95949">
        <ele>169.7</ele>
        <time>2022-10-06T07:47:29Z</time>
      </trkpt>
      <trkpt lat="48.70721" lon="1.95941">
        <ele>170</ele>
        <time>2022-10-06T07:47:37Z</time>
      </trkpt>
      <trkpt lat="48.70714" lon="1.95931">
        <ele>170</ele>
        <time>2022-10-06T07:47:43Z</time>
      </trkpt>
      <trkpt lat="48.70707" lon="1.95921">
        <ele>170</ele>
        <time>2022-10-06T07:47:50Z</time>
      </trkpt>
      <trkpt lat="48.70702" lon="1.9591">
        <ele>169.9</ele>
        <time>2022-10-06T07:47:56Z</time>
      </trkpt>
      <trkpt lat="48.70695" lon="1.959">
        <ele>170</ele>
        <time>2022-10-06T07:48:03Z</time>
      </trkpt>
      <trkpt lat="48.7069" lon="1.95887">
        <ele>170</ele>
        <time>2022-10-06T07:48:10Z</time>
      </trkpt>
      <trkpt lat="48.70686" lon="1.95874">
        <ele>170</ele>
        <time>2022-10-06T07:48:16Z</time>
      </trkpt>
      <trkpt lat="48.7068" lon="1.95863">
        <ele>170</ele>
        <time>2022-10-06T07:48:22Z</time>
      </trkpt>
      <trkpt lat="48.70675" lon="1.9585">
        <ele>170</ele>
        <time>2022-10-06T07:48:30Z</time>
      </trkpt>
      <trkpt lat="48.7067" lon="1.95836">
        <ele>170</ele>
        <time>2022-10-06T07:48:37Z</time>
      </trkpt>
      <trkpt lat="48.70664" lon="1.95824">
        <ele>170.1</ele>
        <time>2022-10-06T07:48:44Z</time>
      </trkpt>
      <trkpt lat="48.70658" lon="1.95813">
        <ele>170.3</ele>
        <time>2022-10-06T07:48:51Z</time>
      </trkpt>
      <trkpt lat="48.70651" lon="1.95802">
        <ele>170.6</ele>
        <time>2022-10-06T07:48:59Z</time>
      </trkpt>
      <trkpt lat="48.70644" lon="1.95792">
        <ele>170.9</ele>
        <time>2022-10-06T07:49:07Z</time>
      </trkpt>
      <trkpt lat="48.70635" lon="1.95782">
        <ele>171</ele>
        <time>2022-10-06T07:49:14Z</time>
      </trkpt>
      <trkpt lat="48.70627" lon="1.95774">
        <ele>171</ele>
        <time>2022-10-06T07:49:19Z</time>
      </trkpt>
      <trkpt lat="48.70618" lon="1.95769">
        <ele>171</ele>
        <time>2022-10-06T07:49:26Z</time>
      </trkpt>
      <trkpt lat="48.70609" lon="1.95762">
        <ele>171.1</ele>
        <time>2022-10-06T07:49:34Z</time>
      </trkpt>
      <trkpt lat="48.70599" lon="1.95758">
        <ele>171.4</ele>
        <time>2022-10-06T07:49:40Z</time>
      </trkpt>
      <trkpt lat="48.7059" lon="1.95755">
        <ele>171.7</ele>
        <time>2022-10-06T07:49:46Z</time>
      </trkpt>
      <trkpt lat="48.70582" lon="1.95751">
        <ele>171.9</ele>
        <time>2022-10-06T07:49:53Z</time>
      </trkpt>
      <trkpt lat="48.70572" lon="1.95749">
        <ele>171.6</ele>
        <time>2022-10-06T07:50:07Z</time>
      </trkpt>
      <trkpt lat="48.70564" lon="1.95747">
        <ele>171.2</ele>
        <time>2022-10-06T07:50:23Z</time>
      </trkpt>
      <trkpt lat="48.70556" lon="1.9574">
        <ele>170.6</ele>
        <time>2022-10-06T07:50:31Z</time>
      </trkpt>
      <trkpt lat="48.70547" lon="1.95736">
        <ele>169.7</ele>
        <time>2022-10-06T07:50:38Z</time>
      </trkpt>
      <trkpt lat="48.70537" lon="1.95735">
        <ele>168.8</ele>
        <time>2022-10-06T07:50:45Z</time>
      </trkpt>
      <trkpt lat="48.70527" lon="1.9573">
        <ele>167.9</ele>
        <time>2022-10-06T07:50:52Z</time>
      </trkpt>
      <trkpt lat="48.70517" lon="1.95727">
        <ele>166.2</ele>
        <time>2022-10-06T07:51:00Z</time>
      </trkpt>
      <trkpt lat="48.70508" lon="1.95728">
        <ele>164.5</ele>
        <time>2022-10-06T07:51:05Z</time>
      </trkpt>
      <trkpt lat="48.705" lon="1.95735">
        <ele>163.3</ele>
        <time>2022-10-06T07:51:13Z</time>
      </trkpt>
      <trkpt lat="48.70491" lon="1.95733">
        <ele>160.6</ele>
        <time>2022-10-06T07:51:25Z</time>
      </trkpt>
      <trkpt lat="48.70481" lon="1.95731">
        <ele>157.7</ele>
        <time>2022-10-06T07:51:35Z</time>
      </trkpt>
      <trkpt lat="48.70472" lon="1.95731">
        <ele>154.9</ele>
        <time>2022-10-06T07:51:44Z</time>
      </trkpt>
      <trkpt lat="48.70462" lon="1.95733">
        <ele>152.1</ele>
        <time>2022-10-06T07:51:59Z</time>
      </trkpt>
      <trkpt lat="48.70457" lon="1.95721">
        <ele>150.5</ele>
        <time>2022-10-06T07:52:13Z</time>
      </trkpt>
      <trkpt lat="48.70447" lon="1.95716">
        <ele>147.6</ele>
        <time>2022-10-06T07:52:19Z</time>
      </trkpt>
      <trkpt lat="48.70439" lon="1.95709">
        <ele>146.3</ele>
        <time>2022-10-06T07:52:27Z</time>
      </trkpt>
      <trkpt lat="48.7043" lon="1.95702">
        <ele>145.3</ele>
        <time>2022-10-06T07:52:34Z</time>
      </trkpt>
      <trkpt lat="48.70421" lon="1.95699">
        <ele>144.4</ele>
        <time>2022-10-06T07:52:43Z</time>
      </trkpt>
      <trkpt lat="48.70412" lon="1.95696">
        <ele>144</ele>
        <time>2022-10-06T07:53:26Z</time>
      </trkpt>
      <trkpt lat="48.70402" lon="1.95693">
        <ele>144</ele>
        <time>2022-10-06T07:53:34Z</time>
      </trkpt>
      <trkpt lat="48.70393" lon="1.95688">
        <ele>144</ele>
        <time>2022-10-06T07:53:41Z</time>
      </trkpt>
      <trkpt lat="48.70384" lon="1.95685">
        <ele>144.8</ele>
        <time>2022-10-06T07:53:49Z</time>
      </trkpt>
      <trkpt lat="48.70375" lon="1.95681">
        <ele>146.3</ele>
        <time>2022-10-06T07:54:00Z</time>
      </trkpt>
      <trkpt lat="48.70373" lon="1.95696">
        <ele>146.2</ele>
        <time>2022-10-06T07:54:10Z</time>
      </trkpt>
      <trkpt lat="48.70373" lon="1.95711">
        <ele>145</ele>
        <time>2022-10-06T07:54:17Z</time>
      </trkpt>
      <trkpt lat="48.70371" lon="1.95727">
        <ele>143.9</ele>
        <time>2022-10-06T07:54:23Z</time>
      </trkpt>
      <trkpt lat="48.70369" lon="1.95743">
        <ele>142.9</ele>
        <time>2022-10-06T07:54:29Z</time>
      </trkpt>
      <trkpt lat="48.70367" lon="1.95758">
        <ele>142</ele>
        <time>2022-10-06T07:54:35Z</time>
      </trkpt>
      <trkpt lat="48.70366" lon="1.95772">
        <ele>141.2</ele>
        <time>2022-10-06T07:54:41Z</time>
      </trkpt>
      <trkpt lat="48.70364" lon="1.95787">
        <ele>140.6</ele>
        <time>2022-10-06T07:54:47Z</time>
      </trkpt>
      <trkpt lat="48.70363" lon="1.958">
        <ele>140.1</ele>
        <time>2022-10-06T07:54:53Z</time>
      </trkpt>
      <trkpt lat="48.70361" lon="1.95815">
        <ele>139.7</ele>
        <time>2022-10-06T07:54:59Z</time>
      </trkpt>
      <trkpt lat="48.7036" lon="1.95829">
        <ele>139.2</ele>
        <time>2022-10-06T07:55:05Z</time>
      </trkpt>
      <trkpt lat="48.70359" lon="1.95843">
        <ele>138.8</ele>
        <time>2022-10-06T07:55:11Z</time>
      </trkpt>
      <trkpt lat="48.70358" lon="1.95857">
        <ele>138.4</ele>
        <time>2022-10-06T07:55:17Z</time>
      </trkpt>
      <trkpt lat="48.70355" lon="1.95871">
        <ele>138.4</ele>
        <time>2022-10-06T07:55:24Z</time>
      </trkpt>
      <trkpt lat="48.70354" lon="1.95884">
        <ele>138.3</ele>
        <time>2022-10-06T07:55:31Z</time>
      </trkpt>
      <trkpt lat="48.70355" lon="1.95898">
        <ele>137.9</ele>
        <time>2022-10-06T07:55:39Z</time>
      </trkpt>
      <trkpt lat="48.70353" lon="1.95913">
        <ele>137.4</ele>
        <time>2022-10-06T07:55:45Z</time>
      </trkpt>
      <trkpt lat="48.70352" lon="1.95929">
        <ele>136.4</ele>
        <time>2022-10-06T07:55:51Z</time>
      </trkpt>
      <trkpt lat="48.70351" lon="1.95943">
        <ele>135.5</ele>
        <time>2022-10-06T07:55:56Z</time>
      </trkpt>
      <trkpt lat="48.70349" lon="1.95957">
        <ele>134.1</ele>
        <time>2022-10-06T07:56:03Z</time>
      </trkpt>
      <trkpt lat="48.70344" lon="1.9597">
        <ele>132.8</ele>
        <time>2022-10-06T07:56:08Z</time>
      </trkpt>
      <trkpt lat="48.70338" lon="1.95981">
        <ele>132</ele>
        <time>2022-10-06T07:56:20Z</time>
      </trkpt>
      <trkpt lat="48.70336" lon="1.95996">
        <ele>130.5</ele>
        <time>2022-10-06T07:56:30Z</time>
      </trkpt>
      <trkpt lat="48.70331" lon="1.96007">
        <ele>129.6</ele>
        <time>2022-10-06T07:56:40Z</time>
      </trkpt>
      <trkpt lat="48.70324" lon="1.96017">
        <ele>129</ele>
        <time>2022-10-06T07:56:48Z</time>
      </trkpt>
      <trkpt lat="48.70316" lon="1.96027">
        <ele>128.1</ele>
        <time>2022-10-06T07:56:57Z</time>
      </trkpt>
      <trkpt lat="48.70308" lon="1.96032">
        <ele>127.7</ele>
        <time>2022-10-06T07:57:05Z</time>
      </trkpt>
      <trkpt lat="48.70303" lon="1.96044">
        <ele>127</ele>
        <time>2022-10-06T07:57:13Z</time>
      </trkpt>
      <trkpt lat="48.70295" lon="1.96052">
        <ele>127</ele>
        <time>2022-10-06T07:57:22Z</time>
      </trkpt>
      <trkpt lat="48.70292" lon="1.96066">
        <ele>126.8</ele>
        <time>2022-10-06T07:57:29Z</time>
      </trkpt>
      <trkpt lat="48.70289" lon="1.9608">
        <ele>126.7</ele>
        <time>2022-10-06T07:57:36Z</time>
      </trkpt>
      <trkpt lat="48.7029" lon="1.96096">
        <ele>126.7</ele>
        <time>2022-10-06T07:57:42Z</time>
      </trkpt>
      <trkpt lat="48.70293" lon="1.96109">
        <ele>127.1</ele>
        <time>2022-10-06T07:57:48Z</time>
      </trkpt>
      <trkpt lat="48.7029" lon="1.96124">
        <ele>127.3</ele>
        <time>2022-10-06T07:57:54Z</time>
      </trkpt>
      <trkpt lat="48.70283" lon="1.96136">
        <ele>126.7</ele>
        <time>2022-10-06T07:58:04Z</time>
      </trkpt>
      <trkpt lat="48.70276" lon="1.96144">
        <ele>126.1</ele>
        <time>2022-10-06T07:58:09Z</time>
      </trkpt>
      <trkpt lat="48.70268" lon="1.96153">
        <ele>126.4</ele>
        <time>2022-10-06T07:58:16Z</time>
      </trkpt>
      <trkpt lat="48.7026" lon="1.96162">
        <ele>126.6</ele>
        <time>2022-10-06T07:58:22Z</time>
      </trkpt>
      <trkpt lat="48.70253" lon="1.96174">
        <ele>126.7</ele>
        <time>2022-10-06T07:58:28Z</time>
      </trkpt>
      <trkpt lat="48.70248" lon="1.96187">
        <ele>126.5</ele>
        <time>2022-10-06T07:58:34Z</time>
      </trkpt>
      <trkpt lat="48.70241" lon="1.96199">
        <ele>127.2</ele>
        <time>2022-10-06T07:58:42Z</time>
      </trkpt>
      <trkpt lat="48.70241" lon="1.96214">
        <ele>126.9</ele>
        <time>2022-10-06T07:58:47Z</time>
      </trkpt>
      <trkpt lat="48.70242" lon="1.96228">
        <ele>126.2</ele>
        <time>2022-10-06T07:58:54Z</time>
      </trkpt>
      <trkpt lat="48.70237" lon="1.96242">
        <ele>126.6</ele>
        <time>2022-10-06T07:59:00Z</time>
      </trkpt>
      <trkpt lat="48.70232" lon="1.96255">
        <ele>127.1</ele>
        <time>2022-10-06T07:59:06Z</time>
      </trkpt>
      <trkpt lat="48.70228" lon="1.96269">
        <ele>126.9</ele>
        <time>2022-10-06T07:59:13Z</time>
      </trkpt>
      <trkpt lat="48.70223" lon="1.96282">
        <ele>126.6</ele>
        <time>2022-10-06T07:59:19Z</time>
      </trkpt>
      <trkpt lat="48.7022" lon="1.96294">
        <ele>126.5</ele>
        <time>2022-10-06T07:59:25Z</time>
      </trkpt>
      <trkpt lat="48.70217" lon="1.9631">
        <ele>126.1</ele>
        <time>2022-10-06T07:59:32Z</time>
      </trkpt>
      <trkpt lat="48.70217" lon="1.96324">
        <ele>125.5</ele>
        <time>2022-10-06T07:59:38Z</time>
      </trkpt>
      <trkpt lat="48.7022" lon="1.96337">
        <ele>124.3</ele>
        <time>2022-10-06T07:59:43Z</time>
      </trkpt>
      <trkpt lat="48.70228" lon="1.96346">
        <ele>123.2</ele>
        <time>2022-10-06T07:59:52Z</time>
      </trkpt>
      <trkpt lat="48.70236" lon="1.96355">
        <ele>122.3</ele>
        <time>2022-10-06T07:59:59Z</time>
      </trkpt>
      <trkpt lat="48.70243" lon="1.96366">
        <ele>121.6</ele>
        <time>2022-10-06T08:00:09Z</time>
      </trkpt>
      <trkpt lat="48.70251" lon="1.96374">
        <ele>121.1</ele>
        <time>2022-10-06T08:00:15Z</time>
      </trkpt>
      <trkpt lat="48.70258" lon="1.96382">
        <ele>121.5</ele>
        <time>2022-10-06T08:00:20Z</time>
      </trkpt>
      <trkpt lat="48.70266" lon="1.96389">
        <ele>121.6</ele>
        <time>2022-10-06T08:00:25Z</time>
      </trkpt>
      <trkpt lat="48.70275" lon="1.96397">
        <ele>121.4</ele>
        <time>2022-10-06T08:00:31Z</time>
      </trkpt>
      <trkpt lat="48.70284" lon="1.96402">
        <ele>122</ele>
        <time>2022-10-06T08:00:37Z</time>
      </trkpt>
      <trkpt lat="48.70292" lon="1.96409">
        <ele>122.8</ele>
        <time>2022-10-06T08:00:43Z</time>
      </trkpt>
      <trkpt lat="48.70298" lon="1.96421">
        <ele>122.6</ele>
        <time>2022-10-06T08:00:50Z</time>
      </trkpt>
      <trkpt lat="48.70301" lon="1.96436">
        <ele>122.2</ele>
        <time>2022-10-06T08:00:58Z</time>
      </trkpt>
      <trkpt lat="48.70304" lon="1.96451">
        <ele>121.4</ele>
        <time>2022-10-06T08:01:05Z</time>
      </trkpt>
      <trkpt lat="48.70309" lon="1.96463">
        <ele>121.8</ele>
        <time>2022-10-06T08:01:11Z</time>
      </trkpt>
      <trkpt lat="48.7031" lon="1.96478">
        <ele>121.1</ele>
        <time>2022-10-06T08:01:17Z</time>
      </trkpt>
      <trkpt lat="48.70308" lon="1.96493">
        <ele>119.9</ele>
        <time>2022-10-06T08:01:24Z</time>
      </trkpt>
      <trkpt lat="48.70312" lon="1.96506">
        <ele>120.3</ele>
        <time>2022-10-06T08:01:29Z</time>
      </trkpt>
      <trkpt lat="48.70316" lon="1.9652">
        <ele>120.2</ele>
        <time>2022-10-06T08:01:34Z</time>
      </trkpt>
      <trkpt lat="48.70317" lon="1.96536">
        <ele>119.9</ele>
        <time>2022-10-06T08:01:41Z</time>
      </trkpt>
      <trkpt lat="48.70319" lon="1.9655">
        <ele>120.3</ele>
        <time>2022-10-06T08:01:47Z</time>
      </trkpt>
      <trkpt lat="48.7032" lon="1.96565">
        <ele>120.1</ele>
        <time>2022-10-06T08:01:53Z</time>
      </trkpt>
      <trkpt lat="48.70317" lon="1.9658">
        <ele>118.6</ele>
        <time>2022-10-06T08:01:59Z</time>
      </trkpt>
      <trkpt lat="48.70315" lon="1.96595">
        <ele>117.7</ele>
        <time>2022-10-06T08:02:06Z</time>
      </trkpt>
      <trkpt lat="48.70312" lon="1.96608">
        <ele>116.9</ele>
        <time>2022-10-06T08:02:11Z</time>
      </trkpt>
      <trkpt lat="48.70311" lon="1.96623">
        <ele>116.7</ele>
        <time>2022-10-06T08:02:19Z</time>
      </trkpt>
      <trkpt lat="48.70308" lon="1.96637">
        <ele>116.3</ele>
        <time>2022-10-06T08:02:26Z</time>
      </trkpt>
      <trkpt lat="48.70306" lon="1.96652">
        <ele>116</ele>
        <time>2022-10-06T08:02:33Z</time>
      </trkpt>
      <trkpt lat="48.70306" lon="1.96667">
        <ele>116.1</ele>
        <time>2022-10-06T08:02:40Z</time>
      </trkpt>
      <trkpt lat="48.70302" lon="1.96681">
        <ele>115.7</ele>
        <time>2022-10-06T08:03:37Z</time>
      </trkpt>
      <trkpt lat="48.703" lon="1.96695">
        <ele>115.4</ele>
        <time>2022-10-06T08:03:45Z</time>
      </trkpt>
      <trkpt lat="48.70298" lon="1.96708">
        <ele>115.3</ele>
        <time>2022-10-06T08:03:51Z</time>
      </trkpt>
      <trkpt lat="48.70289" lon="1.96716">
        <ele>115.3</ele>
        <time>2022-10-06T08:03:59Z</time>
      </trkpt>
      <trkpt lat="48.70279" lon="1.9672">
        <ele>115.2</ele>
        <time>2022-10-06T08:04:08Z</time>
      </trkpt>
      <trkpt lat="48.7027" lon="1.96726">
        <ele>115.4</ele>
        <time>2022-10-06T08:04:16Z</time>
      </trkpt>
      <trkpt lat="48.70261" lon="1.96729">
        <ele>115.9</ele>
        <time>2022-10-06T08:04:22Z</time>
      </trkpt>
      <trkpt lat="48.70253" lon="1.96735">
        <ele>115.9</ele>
        <time>2022-10-06T08:04:28Z</time>
      </trkpt>
      <trkpt lat="48.70243" lon="1.96742">
        <ele>115.9</ele>
        <time>2022-10-06T08:04:35Z</time>
      </trkpt>
      <trkpt lat="48.70234" lon="1.96746">
        <ele>115.9</ele>
        <time>2022-10-06T08:04:42Z</time>
      </trkpt>
      <trkpt lat="48.70224" lon="1.96747">
        <ele>116.1</ele>
        <time>2022-10-06T08:04:49Z</time>
      </trkpt>
      <trkpt lat="48.70214" lon="1.96755">
        <ele>116.9</ele>
        <time>2022-10-06T08:04:55Z</time>
      </trkpt>
      <trkpt lat="48.70205" lon="1.96755">
        <ele>117.9</ele>
        <time>2022-10-06T08:05:02Z</time>
      </trkpt>
      <trkpt lat="48.70196" lon="1.96756">
        <ele>119</ele>
        <time>2022-10-06T08:05:08Z</time>
      </trkpt>
      <trkpt lat="48.70187" lon="1.96752">
        <ele>119.9</ele>
        <time>2022-10-06T08:05:14Z</time>
      </trkpt>
      <trkpt lat="48.70178" lon="1.96748">
        <ele>120.7</ele>
        <time>2022-10-06T08:05:21Z</time>
      </trkpt>
      <trkpt lat="48.70169" lon="1.96749">
        <ele>121.7</ele>
        <time>2022-10-06T08:05:27Z</time>
      </trkpt>
      <trkpt lat="48.7016" lon="1.96753">
        <ele>122.2</ele>
        <time>2022-10-06T08:05:33Z</time>
      </trkpt>
      <trkpt lat="48.70151" lon="1.96757">
        <ele>122.5</ele>
        <time>2022-10-06T08:05:40Z</time>
      </trkpt>
      <trkpt lat="48.70141" lon="1.9676">
        <ele>122.7</ele>
        <time>2022-10-06T08:05:48Z</time>
      </trkpt>
      <trkpt lat="48.70132" lon="1.96763">
        <ele>122.8</ele>
        <time>2022-10-06T08:05:55Z</time>
      </trkpt>
      <trkpt lat="48.70122" lon="1.96765">
        <ele>122.7</ele>
        <time>2022-10-06T08:06:02Z</time>
      </trkpt>
      <trkpt lat="48.70112" lon="1.96764">
        <ele>122.5</ele>
        <time>2022-10-06T08:06:08Z</time>
      </trkpt>
      <trkpt lat="48.70103" lon="1.96762">
        <ele>122.5</ele>
        <time>2022-10-06T08:06:14Z</time>
      </trkpt>
      <trkpt lat="48.70093" lon="1.9676">
        <ele>122.6</ele>
        <time>2022-10-06T08:06:21Z</time>
      </trkpt>
      <trkpt lat="48.70083" lon="1.96759">
        <ele>122.7</ele>
        <time>2022-10-06T08:06:28Z</time>
      </trkpt>
      <trkpt lat="48.70074" lon="1.96755">
        <ele>123</ele>
        <time>2022-10-06T08:06:34Z</time>
      </trkpt>
      <trkpt lat="48.70063" lon="1.96756">
        <ele>123.9</ele>
        <time>2022-10-06T08:06:41Z</time>
      </trkpt>
      <trkpt lat="48.70055" lon="1.96759">
        <ele>124.7</ele>
        <time>2022-10-06T08:06:47Z</time>
      </trkpt>
      <trkpt lat="48.70045" lon="1.96756">
        <ele>125.5</ele>
        <time>2022-10-06T08:06:54Z</time>
      </trkpt>
      <trkpt lat="48.70036" lon="1.96754">
        <ele>126.3</ele>
        <time>2022-10-06T08:07:01Z</time>
      </trkpt>
      <trkpt lat="48.70026" lon="1.96754">
        <ele>127.3</ele>
        <time>2022-10-06T08:07:08Z</time>
      </trkpt>
      <trkpt lat="48.70016" lon="1.96755">
        <ele>128.4</ele>
        <time>2022-10-06T08:07:17Z</time>
      </trkpt>
      <trkpt lat="48.70006" lon="1.96752">
        <ele>129.4</ele>
        <time>2022-10-06T08:07:25Z</time>
      </trkpt>
      <trkpt lat="48.69997" lon="1.96753">
        <ele>130.5</ele>
        <time>2022-10-06T08:07:31Z</time>
      </trkpt>
      <trkpt lat="48.69993" lon="1.96741">
        <ele>132.3</ele>
        <time>2022-10-06T08:09:15Z</time>
      </trkpt>
      <trkpt lat="48.69996" lon="1.96728">
        <ele>133.1</ele>
        <time>2022-10-06T08:09:22Z</time>
      </trkpt>
      <trkpt lat="48.7" lon="1.96714">
        <ele>134.1</ele>
        <time>2022-10-06T08:09:29Z</time>
      </trkpt>
      <trkpt lat="48.70007" lon="1.96703">
        <ele>133.8</ele>
        <time>2022-10-06T08:09:36Z</time>
      </trkpt>
      <trkpt lat="48.70011" lon="1.9669">
        <ele>133.8</ele>
        <time>2022-10-06T08:09:43Z</time>
      </trkpt>
      <trkpt lat="48.70014" lon="1.96675">
        <ele>134.5</ele>
        <time>2022-10-06T08:09:51Z</time>
      </trkpt>
      <trkpt lat="48.7002" lon="1.96665">
        <ele>133.8</ele>
        <time>2022-10-06T08:09:57Z</time>
      </trkpt>
      <trkpt lat="48.70025" lon="1.96652">
        <ele>133.5</ele>
        <time>2022-10-06T08:10:03Z</time>
      </trkpt>
      <trkpt lat="48.70029" lon="1.96639">
        <ele>133.8</ele>
        <time>2022-10-06T08:10:10Z</time>
      </trkpt>
      <trkpt lat="48.70028" lon="1.96624">
        <ele>136.1</ele>
        <time>2022-10-06T08:10:18Z</time>
      </trkpt>
      <trkpt lat="48.70033" lon="1.96612">
        <ele>137.3</ele>
        <time>2022-10-06T08:10:25Z</time>
      </trkpt>
      <trkpt lat="48.7004" lon="1.96599">
        <ele>138.6</ele>
        <time>2022-10-06T08:10:31Z</time>
      </trkpt>
      <trkpt lat="48.70047" lon="1.96589">
        <ele>139.5</ele>
        <time>2022-10-06T08:10:39Z</time>
      </trkpt>
      <trkpt lat="48.70052" lon="1.96576">
        <ele>140.7</ele>
        <time>2022-10-06T08:10:46Z</time>
      </trkpt>
      <trkpt lat="48.70059" lon="1.96567">
        <ele>141.8</ele>
        <time>2022-10-06T08:10:52Z</time>
      </trkpt>
      <trkpt lat="48.70066" lon="1.96556">
        <ele>143.2</ele>
        <time>2022-10-06T08:10:59Z</time>
      </trkpt>
      <trkpt lat="48.70071" lon="1.96545">
        <ele>143.8</ele>
        <time>2022-10-06T08:11:06Z</time>
      </trkpt>
      <trkpt lat="48.70079" lon="1.96536">
        <ele>143.9</ele>
        <time>2022-10-06T08:11:13Z</time>
      </trkpt>
      <trkpt lat="48.70083" lon="1.96523">
        <ele>144.4</ele>
        <time>2022-10-06T08:11:23Z</time>
      </trkpt>
      <trkpt lat="48.70078" lon="1.96512">
        <ele>145.8</ele>
        <time>2022-10-06T08:11:31Z</time>
      </trkpt>
      <trkpt lat="48.70069" lon="1.96503">
        <ele>147.3</ele>
        <time>2022-10-06T08:11:38Z</time>
      </trkpt>
      <trkpt lat="48.7006" lon="1.965">
        <ele>148.6</ele>
        <time>2022-10-06T08:11:45Z</time>
      </trkpt>
      <trkpt lat="48.7005" lon="1.96496">
        <ele>149.9</ele>
        <time>2022-10-06T08:11:54Z</time>
      </trkpt>
      <trkpt lat="48.70041" lon="1.96495">
        <ele>151.3</ele>
        <time>2022-10-06T08:12:01Z</time>
      </trkpt>
      <trkpt lat="48.70032" lon="1.96493">
        <ele>152.7</ele>
        <time>2022-10-06T08:12:10Z</time>
      </trkpt>
      <trkpt lat="48.70023" lon="1.96491">
        <ele>153.9</ele>
        <time>2022-10-06T08:12:19Z</time>
      </trkpt>
      <trkpt lat="48.70014" lon="1.96484">
        <ele>155.1</ele>
        <time>2022-10-06T08:12:27Z</time>
      </trkpt>
      <trkpt lat="48.70004" lon="1.96481">
        <ele>156.2</ele>
        <time>2022-10-06T08:12:34Z</time>
      </trkpt>
      <trkpt lat="48.69995" lon="1.96476">
        <ele>157.4</ele>
        <time>2022-10-06T08:12:41Z</time>
      </trkpt>
      <trkpt lat="48.69985" lon="1.96472">
        <ele>158.6</ele>
        <time>2022-10-06T08:12:49Z</time>
      </trkpt>
      <trkpt lat="48.69976" lon="1.96468">
        <ele>159.8</ele>
        <time>2022-10-06T08:12:57Z</time>
      </trkpt>
      <trkpt lat="48.69968" lon="1.96462">
        <ele>160.7</ele>
        <time>2022-10-06T08:13:05Z</time>
      </trkpt>
      <trkpt lat="48.69959" lon="1.96457">
        <ele>161.5</ele>
        <time>2022-10-06T08:13:14Z</time>
      </trkpt>
      <trkpt lat="48.69949" lon="1.96453">
        <ele>162.4</ele>
        <time>2022-10-06T08:13:21Z</time>
      </trkpt>
      <trkpt lat="48.6994" lon="1.96448">
        <ele>163.1</ele>
        <time>2022-10-06T08:13:27Z</time>
      </trkpt>
      <trkpt lat="48.69931" lon="1.96441">
        <ele>163.5</ele>
        <time>2022-10-06T08:13:35Z</time>
      </trkpt>
      <trkpt lat="48.69922" lon="1.96436">
        <ele>164.1</ele>
        <time>2022-10-06T08:13:44Z</time>
      </trkpt>
      <trkpt lat="48.69912" lon="1.96435">
        <ele>164.7</ele>
        <time>2022-10-06T08:13:52Z</time>
      </trkpt>
      <trkpt lat="48.69901" lon="1.96433">
        <ele>165.5</ele>
        <time>2022-10-06T08:14:00Z</time>
      </trkpt>
      <trkpt lat="48.69892" lon="1.96428">
        <ele>166.4</ele>
        <time>2022-10-06T08:14:07Z</time>
      </trkpt>
      <trkpt lat="48.69883" lon="1.96425">
        <ele>166.9</ele>
        <time>2022-10-06T08:14:14Z</time>
      </trkpt>
      <trkpt lat="48.69874" lon="1.96424">
        <ele>167.3</ele>
        <time>2022-10-06T08:14:21Z</time>
      </trkpt>
      <trkpt lat="48.69864" lon="1.96421">
        <ele>167.7</ele>
        <time>2022-10-06T08:14:29Z</time>
      </trkpt>
      <trkpt lat="48.69855" lon="1.9642">
        <ele>168.1</ele>
        <time>2022-10-06T08:14:37Z</time>
      </trkpt>
      <trkpt lat="48.69846" lon="1.96425">
        <ele>168.4</ele>
        <time>2022-10-06T08:14:44Z</time>
      </trkpt>
      <trkpt lat="48.69836" lon="1.96426">
        <ele>168.9</ele>
        <time>2022-10-06T08:14:51Z</time>
      </trkpt>
      <trkpt lat="48.69827" lon="1.96425">
        <ele>169.2</ele>
        <time>2022-10-06T08:14:59Z</time>
      </trkpt>
      <trkpt lat="48.69818" lon="1.96426">
        <ele>169.4</ele>
        <time>2022-10-06T08:15:06Z</time>
      </trkpt>
      <trkpt lat="48.69813" lon="1.96414">
        <ele>169.7</ele>
        <time>2022-10-06T08:15:49Z</time>
      </trkpt>
      <trkpt lat="48.69807" lon="1.96424">
        <ele>169.7</ele>
        <time>2022-10-06T08:19:40Z</time>
      </trkpt>
      <trkpt lat="48.69799" lon="1.96431">
        <ele>169.7</ele>
        <time>2022-10-06T08:19:46Z</time>
      </trkpt>
      <trkpt lat="48.69793" lon="1.96443">
        <ele>169.5</ele>
        <time>2022-10-06T08:19:52Z</time>
      </trkpt>
      <trkpt lat="48.69788" lon="1.96456">
        <ele>169.6</ele>
        <time>2022-10-06T08:19:58Z</time>
      </trkpt>
      <trkpt lat="48.69785" lon="1.96471">
        <ele>169.7</ele>
        <time>2022-10-06T08:20:05Z</time>
      </trkpt>
      <trkpt lat="48.69778" lon="1.9648">
        <ele>169.7</ele>
        <time>2022-10-06T08:20:12Z</time>
      </trkpt>
      <trkpt lat="48.69768" lon="1.96482">
        <ele>170</ele>
        <time>2022-10-06T08:20:20Z</time>
      </trkpt>
      <trkpt lat="48.69759" lon="1.9648">
        <ele>170.4</ele>
        <time>2022-10-06T08:20:28Z</time>
      </trkpt>
      <trkpt lat="48.6975" lon="1.96475">
        <ele>170.9</ele>
        <time>2022-10-06T08:20:35Z</time>
      </trkpt>
      <trkpt lat="48.69743" lon="1.96465">
        <ele>171</ele>
        <time>2022-10-06T08:20:43Z</time>
      </trkpt>
      <trkpt lat="48.69735" lon="1.96457">
        <ele>171</ele>
        <time>2022-10-06T08:20:51Z</time>
      </trkpt>
      <trkpt lat="48.69729" lon="1.96444">
        <ele>171</ele>
        <time>2022-10-06T08:20:58Z</time>
      </trkpt>
      <trkpt lat="48.69723" lon="1.96435">
        <ele>171</ele>
        <time>2022-10-06T08:21:06Z</time>
      </trkpt>
      <trkpt lat="48.69718" lon="1.96422">
        <ele>171</ele>
        <time>2022-10-06T08:21:15Z</time>
      </trkpt>
      <trkpt lat="48.69711" lon="1.96411">
        <ele>171</ele>
        <time>2022-10-06T08:21:22Z</time>
      </trkpt>
      <trkpt lat="48.69707" lon="1.964">
        <ele>171</ele>
        <time>2022-10-06T08:21:29Z</time>
      </trkpt>
      <trkpt lat="48.69702" lon="1.96386">
        <ele>171.1</ele>
        <time>2022-10-06T08:21:36Z</time>
      </trkpt>
      <trkpt lat="48.69698" lon="1.96374">
        <ele>171.5</ele>
        <time>2022-10-06T08:21:42Z</time>
      </trkpt>
      <trkpt lat="48.69691" lon="1.96363">
        <ele>171.9</ele>
        <time>2022-10-06T08:21:49Z</time>
      </trkpt>
      <trkpt lat="48.69685" lon="1.96351">
        <ele>172</ele>
        <time>2022-10-06T08:21:55Z</time>
      </trkpt>
      <trkpt lat="48.69681" lon="1.96339">
        <ele>172</ele>
        <time>2022-10-06T08:22:00Z</time>
      </trkpt>
      <trkpt lat="48.69675" lon="1.96327">
        <ele>172</ele>
        <time>2022-10-06T08:22:05Z</time>
      </trkpt>
      <trkpt lat="48.69671" lon="1.96313">
        <ele>172</ele>
        <time>2022-10-06T08:22:12Z</time>
      </trkpt>
      <trkpt lat="48.69664" lon="1.96299">
        <ele>172</ele>
        <time>2022-10-06T08:22:18Z</time>
      </trkpt>
      <trkpt lat="48.6966" lon="1.96287">
        <ele>172</ele>
        <time>2022-10-06T08:22:23Z</time>
      </trkpt>
      <trkpt lat="48.69653" lon="1.96275">
        <ele>172</ele>
        <time>2022-10-06T08:22:31Z</time>
      </trkpt>
      <trkpt lat="48.69647" lon="1.96265">
        <ele>172</ele>
        <time>2022-10-06T08:22:36Z</time>
      </trkpt>
      <trkpt lat="48.69644" lon="1.9625">
        <ele>172</ele>
        <time>2022-10-06T08:22:42Z</time>
      </trkpt>
      <trkpt lat="48.69638" lon="1.96237">
        <ele>172</ele>
        <time>2022-10-06T08:22:48Z</time>
      </trkpt>
      <trkpt lat="48.69631" lon="1.96224">
        <ele>172</ele>
        <time>2022-10-06T08:22:53Z</time>
      </trkpt>
      <trkpt lat="48.69625" lon="1.96212">
        <ele>172</ele>
        <time>2022-10-06T08:22:59Z</time>
      </trkpt>
      <trkpt lat="48.69621" lon="1.96197">
        <ele>172</ele>
        <time>2022-10-06T08:23:05Z</time>
      </trkpt>
      <trkpt lat="48.69616" lon="1.96184">
        <ele>172</ele>
        <time>2022-10-06T08:23:11Z</time>
      </trkpt>
      <trkpt lat="48.6961" lon="1.96172">
        <ele>172</ele>
        <time>2022-10-06T08:23:16Z</time>
      </trkpt>
      <trkpt lat="48.69604" lon="1.96162">
        <ele>172</ele>
        <time>2022-10-06T08:23:22Z</time>
      </trkpt>
      <trkpt lat="48.69599" lon="1.9615">
        <ele>172</ele>
        <time>2022-10-06T08:23:29Z</time>
      </trkpt>
      <trkpt lat="48.69595" lon="1.96136">
        <ele>172</ele>
        <time>2022-10-06T08:23:36Z</time>
      </trkpt>
      <trkpt lat="48.69589" lon="1.96125">
        <ele>172</ele>
        <time>2022-10-06T08:23:43Z</time>
      </trkpt>
      <trkpt lat="48.69582" lon="1.96113">
        <ele>172</ele>
        <time>2022-10-06T08:23:50Z</time>
      </trkpt>
      <trkpt lat="48.69576" lon="1.96101">
        <ele>172</ele>
        <time>2022-10-06T08:23:55Z</time>
      </trkpt>
      <trkpt lat="48.69573" lon="1.96087">
        <ele>172</ele>
        <time>2022-10-06T08:24:00Z</time>
      </trkpt>
      <trkpt lat="48.69568" lon="1.96074">
        <ele>172</ele>
        <time>2022-10-06T08:24:06Z</time>
      </trkpt>
      <trkpt lat="48.69563" lon="1.96061">
        <ele>172</ele>
        <time>2022-10-06T08:24:12Z</time>
      </trkpt>
      <trkpt lat="48.69557" lon="1.9605">
        <ele>172</ele>
        <time>2022-10-06T08:24:17Z</time>
      </trkpt>
      <trkpt lat="48.69553" lon="1.96036">
        <ele>171.9</ele>
        <time>2022-10-06T08:24:23Z</time>
      </trkpt>
      <trkpt lat="48.69549" lon="1.96022">
        <ele>171.8</ele>
        <time>2022-10-06T08:24:30Z</time>
      </trkpt>
      <trkpt lat="48.69544" lon="1.9601">
        <ele>171.6</ele>
        <time>2022-10-06T08:24:37Z</time>
      </trkpt>
      <trkpt lat="48.6954" lon="1.95996">
        <ele>171.4</ele>
        <time>2022-10-06T08:24:47Z</time>
      </trkpt>
      <trkpt lat="48.69535" lon="1.95983">
        <ele>171.1</ele>
        <time>2022-10-06T08:24:54Z</time>
      </trkpt>
      <trkpt lat="48.69529" lon="1.95972">
        <ele>171</ele>
        <time>2022-10-06T08:25:01Z</time>
      </trkpt>
      <trkpt lat="48.69524" lon="1.9596">
        <ele>170.3</ele>
        <time>2022-10-06T08:25:07Z</time>
      </trkpt>
      <trkpt lat="48.69518" lon="1.95948">
        <ele>169.7</ele>
        <time>2022-10-06T08:25:14Z</time>
      </trkpt>
      <trkpt lat="48.69513" lon="1.95935">
        <ele>169.3</ele>
        <time>2022-10-06T08:25:21Z</time>
      </trkpt>
      <trkpt lat="48.69507" lon="1.95922">
        <ele>168.7</ele>
        <time>2022-10-06T08:25:28Z</time>
      </trkpt>
      <trkpt lat="48.695" lon="1.95911">
        <ele>168</ele>
        <time>2022-10-06T08:25:34Z</time>
      </trkpt>
      <trkpt lat="48.69496" lon="1.95897">
        <ele>167.6</ele>
        <time>2022-10-06T08:25:41Z</time>
      </trkpt>
      <trkpt lat="48.6949" lon="1.95885">
        <ele>166.9</ele>
        <time>2022-10-06T08:25:47Z</time>
      </trkpt>
      <trkpt lat="48.69486" lon="1.95872">
        <ele>166.5</ele>
        <time>2022-10-06T08:25:53Z</time>
      </trkpt>
      <trkpt lat="48.69481" lon="1.95859">
        <ele>166.1</ele>
        <time>2022-10-06T08:26:00Z</time>
      </trkpt>
      <trkpt lat="48.69475" lon="1.95847">
        <ele>165.8</ele>
        <time>2022-10-06T08:26:06Z</time>
      </trkpt>
      <trkpt lat="48.69469" lon="1.95836">
        <ele>165.8</ele>
        <time>2022-10-06T08:26:13Z</time>
      </trkpt>
      <trkpt lat="48.69464" lon="1.95822">
        <ele>166.1</ele>
        <time>2022-10-06T08:26:20Z</time>
      </trkpt>
      <trkpt lat="48.6946" lon="1.95809">
        <ele>166.4</ele>
        <time>2022-10-06T08:26:27Z</time>
      </trkpt>
      <trkpt lat="48.69453" lon="1.95796">
        <ele>166.7</ele>
        <time>2022-10-06T08:26:35Z</time>
      </trkpt>
      <trkpt lat="48.69449" lon="1.95784">
        <ele>166.9</ele>
        <time>2022-10-06T08:26:42Z</time>
      </trkpt>
      <trkpt lat="48.69443" lon="1.95772">
        <ele>167.4</ele>
        <time>2022-10-06T08:26:50Z</time>
      </trkpt>
      <trkpt lat="48.69439" lon="1.95758">
        <ele>168.4</ele>
        <time>2022-10-06T08:26:58Z</time>
      </trkpt>
      <trkpt lat="48.69435" lon="1.95746">
        <ele>169.2</ele>
        <time>2022-10-06T08:27:05Z</time>
      </trkpt>
      <trkpt lat="48.6943" lon="1.95734">
        <ele>169.6</ele>
        <time>2022-10-06T08:27:12Z</time>
      </trkpt>
      <trkpt lat="48.69424" lon="1.95721">
        <ele>170</ele>
        <time>2022-10-06T08:27:20Z</time>
      </trkpt>
      <trkpt lat="48.6942" lon="1.95708">
        <ele>170</ele>
        <time>2022-10-06T08:27:27Z</time>
      </trkpt>
      <trkpt lat="48.69415" lon="1.95696">
        <ele>170</ele>
        <time>2022-10-06T08:27:33Z</time>
      </trkpt>
      <trkpt lat="48.6941" lon="1.95684">
        <ele>170.5</ele>
        <time>2022-10-06T08:27:38Z</time>
      </trkpt>
      <trkpt lat="48.69405" lon="1.95671">
        <ele>170.9</ele>
        <time>2022-10-06T08:27:44Z</time>
      </trkpt>
      <trkpt lat="48.69399" lon="1.95659">
        <ele>171</ele>
        <time>2022-10-06T08:27:51Z</time>
      </trkpt>
      <trkpt lat="48.69393" lon="1.95647">
        <ele>171</ele>
        <time>2022-10-06T08:27:58Z</time>
      </trkpt>
      <trkpt lat="48.69388" lon="1.95635">
        <ele>171</ele>
        <time>2022-10-06T08:28:04Z</time>
      </trkpt>
      <trkpt lat="48.69384" lon="1.95622">
        <ele>171.2</ele>
        <time>2022-10-06T08:28:10Z</time>
      </trkpt>
      <trkpt lat="48.69379" lon="1.9561">
        <ele>171.4</ele>
        <time>2022-10-06T08:28:17Z</time>
      </trkpt>
      <trkpt lat="48.69373" lon="1.956">
        <ele>171.8</ele>
        <time>2022-10-06T08:28:23Z</time>
      </trkpt>
      <trkpt lat="48.69367" lon="1.95588">
        <ele>172</ele>
        <time>2022-10-06T08:28:30Z</time>
      </trkpt>
      <trkpt lat="48.69363" lon="1.95574">
        <ele>172</ele>
        <time>2022-10-06T08:28:37Z</time>
      </trkpt>
      <trkpt lat="48.69357" lon="1.95561">
        <ele>172.1</ele>
        <time>2022-10-06T08:28:44Z</time>
      </trkpt>
      <trkpt lat="48.69352" lon="1.95548">
        <ele>172.3</ele>
        <time>2022-10-06T08:28:51Z</time>
      </trkpt>
      <trkpt lat="48.69347" lon="1.95537">
        <ele>172.5</ele>
        <time>2022-10-06T08:28:58Z</time>
      </trkpt>
      <trkpt lat="48.69341" lon="1.95525">
        <ele>172.7</ele>
        <time>2022-10-06T08:29:05Z</time>
      </trkpt>
      <trkpt lat="48.69337" lon="1.95512">
        <ele>172.9</ele>
        <time>2022-10-06T08:29:13Z</time>
      </trkpt>
      <trkpt lat="48.69331" lon="1.955">
        <ele>173</ele>
        <time>2022-10-06T08:29:21Z</time>
      </trkpt>
      <trkpt lat="48.69326" lon="1.95489">
        <ele>173</ele>
        <time>2022-10-06T08:29:27Z</time>
      </trkpt>
      <trkpt lat="48.69321" lon="1.95475">
        <ele>173</ele>
        <time>2022-10-06T08:29:35Z</time>
      </trkpt>
      <trkpt lat="48.69316" lon="1.95462">
        <ele>173</ele>
        <time>2022-10-06T08:29:41Z</time>
      </trkpt>
      <trkpt lat="48.6931" lon="1.95452">
        <ele>173</ele>
        <time>2022-10-06T08:29:48Z</time>
      </trkpt>
      <trkpt lat="48.69304" lon="1.9544">
        <ele>173.2</ele>
        <time>2022-10-06T08:29:55Z</time>
      </trkpt>
      <trkpt lat="48.69298" lon="1.95427">
        <ele>173.7</ele>
        <time>2022-10-06T08:30:03Z</time>
      </trkpt>
      <trkpt lat="48.69295" lon="1.95413">
        <ele>174</ele>
        <time>2022-10-06T08:30:12Z</time>
      </trkpt>
      <trkpt lat="48.69291" lon="1.954">
        <ele>174</ele>
        <time>2022-10-06T08:30:25Z</time>
      </trkpt>
      <trkpt lat="48.6929" lon="1.95386">
        <ele>174.1</ele>
        <time>2022-10-06T08:31:05Z</time>
      </trkpt>
      <trkpt lat="48.69282" lon="1.95379">
        <ele>174.3</ele>
        <time>2022-10-06T08:31:13Z</time>
      </trkpt>
      <trkpt lat="48.69275" lon="1.95368">
        <ele>174.7</ele>
        <time>2022-10-06T08:31:22Z</time>
      </trkpt>
      <trkpt lat="48.69268" lon="1.95359">
        <ele>175</ele>
        <time>2022-10-06T08:31:30Z</time>
      </trkpt>
      <trkpt lat="48.69266" lon="1.95346">
        <ele>175</ele>
        <time>2022-10-06T08:31:38Z</time>
      </trkpt>
      <trkpt lat="48.69262" lon="1.95333">
        <ele>175</ele>
        <time>2022-10-06T08:31:44Z</time>
      </trkpt>
      <trkpt lat="48.69256" lon="1.9532">
        <ele>175</ele>
        <time>2022-10-06T08:31:51Z</time>
      </trkpt>
      <trkpt lat="48.6925" lon="1.95309">
        <ele>175</ele>
        <time>2022-10-06T08:31:57Z</time>
      </trkpt>
      <trkpt lat="48.69243" lon="1.95298">
        <ele>175.3</ele>
        <time>2022-10-06T08:32:05Z</time>
      </trkpt>
      <trkpt lat="48.69236" lon="1.95287">
        <ele>175.7</ele>
        <time>2022-10-06T08:32:12Z</time>
      </trkpt>
      <trkpt lat="48.69234" lon="1.95272">
        <ele>176</ele>
        <time>2022-10-06T08:32:19Z</time>
      </trkpt>
      <trkpt lat="48.69235" lon="1.95257">
        <ele>176</ele>
        <time>2022-10-06T08:32:27Z</time>
      </trkpt>
      <trkpt lat="48.69232" lon="1.95243">
        <ele>176</ele>
        <time>2022-10-06T08:32:33Z</time>
      </trkpt>
      <trkpt lat="48.69228" lon="1.95231">
        <ele>176</ele>
        <time>2022-10-06T08:32:39Z</time>
      </trkpt>
      <trkpt lat="48.69222" lon="1.9522">
        <ele>176</ele>
        <time>2022-10-06T08:32:50Z</time>
      </trkpt>
      <trkpt lat="48.69216" lon="1.95208">
        <ele>176</ele>
        <time>2022-10-06T08:32:57Z</time>
      </trkpt>
      <trkpt lat="48.69212" lon="1.95194">
        <ele>176</ele>
        <time>2022-10-06T08:33:03Z</time>
      </trkpt>
      <trkpt lat="48.69209" lon="1.9518">
        <ele>176</ele>
        <time>2022-10-06T08:33:09Z</time>
      </trkpt>
      <trkpt lat="48.6921" lon="1.95164">
        <ele>176</ele>
        <time>2022-10-06T08:33:17Z</time>
      </trkpt>
      <trkpt lat="48.69207" lon="1.9515">
        <ele>176.3</ele>
        <time>2022-10-06T08:33:24Z</time>
      </trkpt>
      <trkpt lat="48.69202" lon="1.95138">
        <ele>176.7</ele>
        <time>2022-10-06T08:33:29Z</time>
      </trkpt>
      <trkpt lat="48.69197" lon="1.95125">
        <ele>177</ele>
        <time>2022-10-06T08:33:34Z</time>
      </trkpt>
      <trkpt lat="48.69192" lon="1.95113">
        <ele>177</ele>
        <time>2022-10-06T08:33:41Z</time>
      </trkpt>
      <trkpt lat="48.69186" lon="1.95101">
        <ele>177</ele>
        <time>2022-10-06T08:33:47Z</time>
      </trkpt>
      <trkpt lat="48.69183" lon="1.95087">
        <ele>177</ele>
        <time>2022-10-06T08:33:54Z</time>
      </trkpt>
      <trkpt lat="48.69181" lon="1.95073">
        <ele>177</ele>
        <time>2022-10-06T08:34:03Z</time>
      </trkpt>
      <trkpt lat="48.69178" lon="1.95059">
        <ele>177</ele>
        <time>2022-10-06T08:34:11Z</time>
      </trkpt>
      <trkpt lat="48.69175" lon="1.95045">
        <ele>177</ele>
        <time>2022-10-06T08:34:18Z</time>
      </trkpt>
      <trkpt lat="48.69173" lon="1.95031">
        <ele>177</ele>
        <time>2022-10-06T08:34:25Z</time>
      </trkpt>
      <trkpt lat="48.6917" lon="1.95017">
        <ele>177.3</ele>
        <time>2022-10-06T08:34:31Z</time>
      </trkpt>
      <trkpt lat="48.69169" lon="1.95003">
        <ele>177.8</ele>
        <time>2022-10-06T08:34:38Z</time>
      </trkpt>
      <trkpt lat="48.69165" lon="1.9499">
        <ele>178</ele>
        <time>2022-10-06T08:34:46Z</time>
      </trkpt>
      <trkpt lat="48.69158" lon="1.9498">
        <ele>178</ele>
        <time>2022-10-06T08:34:54Z</time>
      </trkpt>
      <trkpt lat="48.69152" lon="1.94969">
        <ele>178</ele>
        <time>2022-10-06T08:35:01Z</time>
      </trkpt>
      <trkpt lat="48.69146" lon="1.94958">
        <ele>178</ele>
        <time>2022-10-06T08:35:08Z</time>
      </trkpt>
      <trkpt lat="48.69141" lon="1.94945">
        <ele>178</ele>
        <time>2022-10-06T08:35:15Z</time>
      </trkpt>
      <trkpt lat="48.69135" lon="1.94933">
        <ele>178</ele>
        <time>2022-10-06T08:35:22Z</time>
      </trkpt>
      <trkpt lat="48.69129" lon="1.94922">
        <ele>178</ele>
        <time>2022-10-06T08:35:31Z</time>
      </trkpt>
      <trkpt lat="48.69129" lon="1.94909">
        <ele>178</ele>
        <time>2022-10-06T08:35:40Z</time>
      </trkpt>
      <trkpt lat="48.69125" lon="1.94921">
        <ele>178</ele>
        <time>2022-10-06T08:35:58Z</time>
      </trkpt>
      <trkpt lat="48.69119" lon="1.94933">
        <ele>178</ele>
        <time>2022-10-06T08:36:08Z</time>
      </trkpt>
      <trkpt lat="48.69113" lon="1.94945">
        <ele>178</ele>
        <time>2022-10-06T08:36:16Z</time>
      </trkpt>
      <trkpt lat="48.69107" lon="1.94956">
        <ele>178</ele>
        <time>2022-10-06T08:36:24Z</time>
      </trkpt>
      <trkpt lat="48.69104" lon="1.9497">
        <ele>178</ele>
        <time>2022-10-06T08:36:33Z</time>
      </trkpt>
      <trkpt lat="48.691" lon="1.94983">
        <ele>178</ele>
        <time>2022-10-06T08:36:40Z</time>
      </trkpt>
      <trkpt lat="48.69095" lon="1.94996">
        <ele>178</ele>
        <time>2022-10-06T08:36:47Z</time>
      </trkpt>
      <trkpt lat="48.69089" lon="1.95007">
        <ele>178</ele>
        <time>2022-10-06T08:36:54Z</time>
      </trkpt>
      <trkpt lat="48.69086" lon="1.9502">
        <ele>178</ele>
        <time>2022-10-06T08:37:01Z</time>
      </trkpt>
      <trkpt lat="48.69076" lon="1.9502">
        <ele>178</ele>
        <time>2022-10-06T08:37:09Z</time>
      </trkpt>
      <trkpt lat="48.69066" lon="1.95017">
        <ele>178</ele>
        <time>2022-10-06T08:37:15Z</time>
      </trkpt>
      <trkpt lat="48.69057" lon="1.95011">
        <ele>178</ele>
        <time>2022-10-06T08:37:20Z</time>
      </trkpt>
      <trkpt lat="48.69049" lon="1.95004">
        <ele>178</ele>
        <time>2022-10-06T08:37:28Z</time>
      </trkpt>
      <trkpt lat="48.6904" lon="1.94997">
        <ele>178</ele>
        <time>2022-10-06T08:37:35Z</time>
      </trkpt>
      <trkpt lat="48.6903" lon="1.9499">
        <ele>178</ele>
        <time>2022-10-06T08:37:42Z</time>
      </trkpt>
      <trkpt lat="48.69022" lon="1.94983">
        <ele>178</ele>
        <time>2022-10-06T08:37:49Z</time>
      </trkpt>
      <trkpt lat="48.69013" lon="1.94975">
        <ele>178</ele>
        <time>2022-10-06T08:37:56Z</time>
      </trkpt>
      <trkpt lat="48.69005" lon="1.94968">
        <ele>178</ele>
        <time>2022-10-06T08:38:03Z</time>
      </trkpt>
      <trkpt lat="48.68996" lon="1.94962">
        <ele>177.8</ele>
        <time>2022-10-06T08:38:10Z</time>
      </trkpt>
      <trkpt lat="48.68987" lon="1.94955">
        <ele>177.5</ele>
        <time>2022-10-06T08:38:17Z</time>
      </trkpt>
      <trkpt lat="48.68979" lon="1.94947">
        <ele>177.2</ele>
        <time>2022-10-06T08:38:23Z</time>
      </trkpt>
      <trkpt lat="48.68971" lon="1.9494">
        <ele>177</ele>
        <time>2022-10-06T08:38:30Z</time>
      </trkpt>
      <trkpt lat="48.68962" lon="1.94931">
        <ele>177</ele>
        <time>2022-10-06T08:38:37Z</time>
      </trkpt>
      <trkpt lat="48.68954" lon="1.94922">
        <ele>177</ele>
        <time>2022-10-06T08:38:43Z</time>
      </trkpt>
      <trkpt lat="48.68946" lon="1.94915">
        <ele>177</ele>
        <time>2022-10-06T08:38:49Z</time>
      </trkpt>
      <trkpt lat="48.68938" lon="1.94908">
        <ele>176.8</ele>
        <time>2022-10-06T08:38:55Z</time>
      </trkpt>
      <trkpt lat="48.68929" lon="1.94902">
        <ele>176.5</ele>
        <time>2022-10-06T08:39:03Z</time>
      </trkpt>
      <trkpt lat="48.6892" lon="1.94895">
        <ele>176.1</ele>
        <time>2022-10-06T08:39:10Z</time>
      </trkpt>
      <trkpt lat="48.68912" lon="1.94888">
        <ele>176</ele>
        <time>2022-10-06T08:39:17Z</time>
      </trkpt>
      <trkpt lat="48.68904" lon="1.94879">
        <ele>176</ele>
        <time>2022-10-06T08:39:24Z</time>
      </trkpt>
      <trkpt lat="48.68896" lon="1.9487">
        <ele>176</ele>
        <time>2022-10-06T08:39:31Z</time>
      </trkpt>
      <trkpt lat="48.68888" lon="1.94861">
        <ele>176</ele>
        <time>2022-10-06T08:39:37Z</time>
      </trkpt>
      <trkpt lat="48.6888" lon="1.94853">
        <ele>175.5</ele>
        <time>2022-10-06T08:39:43Z</time>
      </trkpt>
      <trkpt lat="48.68871" lon="1.94845">
        <ele>175.2</ele>
        <time>2022-10-06T08:39:49Z</time>
      </trkpt>
      <trkpt lat="48.68861" lon="1.94842">
        <ele>175</ele>
        <time>2022-10-06T08:39:57Z</time>
      </trkpt>
      <trkpt lat="48.68852" lon="1.94836">
        <ele>174.7</ele>
        <time>2022-10-06T08:40:04Z</time>
      </trkpt>
      <trkpt lat="48.68844" lon="1.94829">
        <ele>174.4</ele>
        <time>2022-10-06T08:40:11Z</time>
      </trkpt>
      <trkpt lat="48.68835" lon="1.9482">
        <ele>174.1</ele>
        <time>2022-10-06T08:40:17Z</time>
      </trkpt>
      <trkpt lat="48.68827" lon="1.94812">
        <ele>174</ele>
        <time>2022-10-06T08:40:23Z</time>
      </trkpt>
      <trkpt lat="48.68818" lon="1.94812">
        <ele>174</ele>
        <time>2022-10-06T08:40:33Z</time>
      </trkpt>
      <trkpt lat="48.68813" lon="1.94799">
        <ele>174</ele>
        <time>2022-10-06T08:40:51Z</time>
      </trkpt>
      <trkpt lat="48.68805" lon="1.94792">
        <ele>174</ele>
        <time>2022-10-06T08:40:58Z</time>
      </trkpt>
      <trkpt lat="48.68798" lon="1.94783">
        <ele>173.8</ele>
        <time>2022-10-06T08:41:05Z</time>
      </trkpt>
      <trkpt lat="48.68789" lon="1.94777">
        <ele>173.4</ele>
        <time>2022-10-06T08:41:12Z</time>
      </trkpt>
      <trkpt lat="48.68781" lon="1.94767">
        <ele>173.1</ele>
        <time>2022-10-06T08:41:20Z</time>
      </trkpt>
      <trkpt lat="48.68772" lon="1.94761">
        <ele>173</ele>
        <time>2022-10-06T08:41:26Z</time>
      </trkpt>
      <trkpt lat="48.68764" lon="1.94752">
        <ele>173</ele>
        <time>2022-10-06T08:41:33Z</time>
      </trkpt>
      <trkpt lat="48.68756" lon="1.94744">
        <ele>173</ele>
        <time>2022-10-06T08:41:39Z</time>
      </trkpt>
      <trkpt lat="48.68747" lon="1.9474">
        <ele>173</ele>
        <time>2022-10-06T08:41:46Z</time>
      </trkpt>
      <trkpt lat="48.68738" lon="1.94734">
        <ele>173</ele>
        <time>2022-10-06T08:41:52Z</time>
      </trkpt>
      <trkpt lat="48.6873" lon="1.94728">
        <ele>173</ele>
        <time>2022-10-06T08:41:58Z</time>
      </trkpt>
      <trkpt lat="48.68724" lon="1.94718">
        <ele>173</ele>
        <time>2022-10-06T08:42:06Z</time>
      </trkpt>
      <trkpt lat="48.68717" lon="1.94708">
        <ele>173</ele>
        <time>2022-10-06T08:42:15Z</time>
      </trkpt>
      <trkpt lat="48.68708" lon="1.94707">
        <ele>173</ele>
        <time>2022-10-06T08:42:28Z</time>
      </trkpt>
      <trkpt lat="48.68699" lon="1.94709">
        <ele>173</ele>
        <time>2022-10-06T08:42:38Z</time>
      </trkpt>
      <trkpt lat="48.68691" lon="1.94718">
        <ele>172.9</ele>
        <time>2022-10-06T08:42:45Z</time>
      </trkpt>
      <trkpt lat="48.68684" lon="1.94729">
        <ele>172.6</ele>
        <time>2022-10-06T08:42:52Z</time>
      </trkpt>
      <trkpt lat="48.68676" lon="1.94735">
        <ele>172.4</ele>
        <time>2022-10-06T08:42:58Z</time>
      </trkpt>
      <trkpt lat="48.68668" lon="1.9474">
        <ele>172</ele>
        <time>2022-10-06T08:43:06Z</time>
      </trkpt>
      <trkpt lat="48.68659" lon="1.94747">
        <ele>172</ele>
        <time>2022-10-06T08:43:13Z</time>
      </trkpt>
      <trkpt lat="48.68651" lon="1.94757">
        <ele>172</ele>
        <time>2022-10-06T08:43:20Z</time>
      </trkpt>
      <trkpt lat="48.68644" lon="1.94766">
        <ele>172</ele>
        <time>2022-10-06T08:43:27Z</time>
      </trkpt>
      <trkpt lat="48.68635" lon="1.94771">
        <ele>172</ele>
        <time>2022-10-06T08:43:35Z</time>
      </trkpt>
      <trkpt lat="48.68627" lon="1.94779">
        <ele>172</ele>
        <time>2022-10-06T08:43:43Z</time>
      </trkpt>
      <trkpt lat="48.68619" lon="1.94788">
        <ele>172</ele>
        <time>2022-10-06T08:43:49Z</time>
      </trkpt>
      <trkpt lat="48.6861" lon="1.94796">
        <ele>172</ele>
        <time>2022-10-06T08:43:56Z</time>
      </trkpt>
      <trkpt lat="48.68602" lon="1.94803">
        <ele>172</ele>
        <time>2022-10-06T08:44:02Z</time>
      </trkpt>
      <trkpt lat="48.68593" lon="1.9481">
        <ele>172</ele>
        <time>2022-10-06T08:44:09Z</time>
      </trkpt>
      <trkpt lat="48.68584" lon="1.94815">
        <ele>172</ele>
        <time>2022-10-06T08:44:15Z</time>
      </trkpt>
      <trkpt lat="48.68574" lon="1.94819">
        <ele>172</ele>
        <time>2022-10-06T08:44:22Z</time>
      </trkpt>
      <trkpt lat="48.68564" lon="1.94819">
        <ele>172</ele>
        <time>2022-10-06T08:44:29Z</time>
      </trkpt>
      <trkpt lat="48.68554" lon="1.9482">
        <ele>172</ele>
        <time>2022-10-06T08:44:36Z</time>
      </trkpt>
      <trkpt lat="48.68543" lon="1.9482">
        <ele>172</ele>
        <time>2022-10-06T08:44:43Z</time>
      </trkpt>
      <trkpt lat="48.68534" lon="1.94824">
        <ele>172</ele>
        <time>2022-10-06T08:44:50Z</time>
      </trkpt>
      <trkpt lat="48.68525" lon="1.94826">
        <ele>172.1</ele>
        <time>2022-10-06T08:44:57Z</time>
      </trkpt>
      <trkpt lat="48.68515" lon="1.94829">
        <ele>172.5</ele>
        <time>2022-10-06T08:45:04Z</time>
      </trkpt>
      <trkpt lat="48.68506" lon="1.94829">
        <ele>172.8</ele>
        <time>2022-10-06T08:45:10Z</time>
      </trkpt>
      <trkpt lat="48.68497" lon="1.94829">
        <ele>172.9</ele>
        <time>2022-10-06T08:45:16Z</time>
      </trkpt>
      <trkpt lat="48.68487" lon="1.94833">
        <ele>172.5</ele>
        <time>2022-10-06T08:45:22Z</time>
      </trkpt>
      <trkpt lat="48.68477" lon="1.94836">
        <ele>172.1</ele>
        <time>2022-10-06T08:45:29Z</time>
      </trkpt>
      <trkpt lat="48.68467" lon="1.94835">
        <ele>171.7</ele>
        <time>2022-10-06T08:45:36Z</time>
      </trkpt>
      <trkpt lat="48.68457" lon="1.94837">
        <ele>171.1</ele>
        <time>2022-10-06T08:45:43Z</time>
      </trkpt>
      <trkpt lat="48.68447" lon="1.94843">
        <ele>170.1</ele>
        <time>2022-10-06T08:45:49Z</time>
      </trkpt>
      <trkpt lat="48.68438" lon="1.94848">
        <ele>169.4</ele>
        <time>2022-10-06T08:45:56Z</time>
      </trkpt>
      <trkpt lat="48.68429" lon="1.94853">
        <ele>169.1</ele>
        <time>2022-10-06T08:46:04Z</time>
      </trkpt>
      <trkpt lat="48.68418" lon="1.94852">
        <ele>169.3</ele>
        <time>2022-10-06T08:46:20Z</time>
      </trkpt>
      <trkpt lat="48.6841" lon="1.94858">
        <ele>169.3</ele>
        <time>2022-10-06T08:46:27Z</time>
      </trkpt>
      <trkpt lat="48.68402" lon="1.94867">
        <ele>169.4</ele>
        <time>2022-10-06T08:46:37Z</time>
      </trkpt>
      <trkpt lat="48.68392" lon="1.94868">
        <ele>169.9</ele>
        <time>2022-10-06T08:46:45Z</time>
      </trkpt>
      <trkpt lat="48.68382" lon="1.94867">
        <ele>169.6</ele>
        <time>2022-10-06T08:46:52Z</time>
      </trkpt>
      <trkpt lat="48.68373" lon="1.94865">
        <ele>168.9</ele>
        <time>2022-10-06T08:47:00Z</time>
      </trkpt>
      <trkpt lat="48.68365" lon="1.94858">
        <ele>168.3</ele>
        <time>2022-10-06T08:47:06Z</time>
      </trkpt>
      <trkpt lat="48.68356" lon="1.9485">
        <ele>167.6</ele>
        <time>2022-10-06T08:47:12Z</time>
      </trkpt>
      <trkpt lat="48.68348" lon="1.94844">
        <ele>167.1</ele>
        <time>2022-10-06T08:47:19Z</time>
      </trkpt>
      <trkpt lat="48.68339" lon="1.94836">
        <ele>166.4</ele>
        <time>2022-10-06T08:47:25Z</time>
      </trkpt>
      <trkpt lat="48.6833" lon="1.94831">
        <ele>165.7</ele>
        <time>2022-10-06T08:47:31Z</time>
      </trkpt>
      <trkpt lat="48.68322" lon="1.94837">
        <ele>164.8</ele>
        <time>2022-10-06T08:47:49Z</time>
      </trkpt>
      <trkpt lat="48.68316" lon="1.9485">
        <ele>164.1</ele>
        <time>2022-10-06T08:47:58Z</time>
      </trkpt>
      <trkpt lat="48.6831" lon="1.94862">
        <ele>163.5</ele>
        <time>2022-10-06T08:48:07Z</time>
      </trkpt>
      <trkpt lat="48.68303" lon="1.94873">
        <ele>163.6</ele>
        <time>2022-10-06T08:48:15Z</time>
      </trkpt>
      <trkpt lat="48.68297" lon="1.94883">
        <ele>163.8</ele>
        <time>2022-10-06T08:48:22Z</time>
      </trkpt>
      <trkpt lat="48.68287" lon="1.94885">
        <ele>163.3</ele>
        <time>2022-10-06T08:48:28Z</time>
      </trkpt>
      <trkpt lat="48.68278" lon="1.9489">
        <ele>163.1</ele>
        <time>2022-10-06T08:48:35Z</time>
      </trkpt>
      <trkpt lat="48.68268" lon="1.94895">
        <ele>162.7</ele>
        <time>2022-10-06T08:48:43Z</time>
      </trkpt>
      <trkpt lat="48.6826" lon="1.94902">
        <ele>162.8</ele>
        <time>2022-10-06T08:48:51Z</time>
      </trkpt>
      <trkpt lat="48.68251" lon="1.94908">
        <ele>162.9</ele>
        <time>2022-10-06T08:48:57Z</time>
      </trkpt>
      <trkpt lat="48.68243" lon="1.94914">
        <ele>162.9</ele>
        <time>2022-10-06T08:49:03Z</time>
      </trkpt>
      <trkpt lat="48.68234" lon="1.9492">
        <ele>162.5</ele>
        <time>2022-10-06T08:49:10Z</time>
      </trkpt>
      <trkpt lat="48.68225" lon="1.94926">
        <ele>162</ele>
        <time>2022-10-06T08:49:17Z</time>
      </trkpt>
      <trkpt lat="48.68216" lon="1.94934">
        <ele>161.7</ele>
        <time>2022-10-06T08:49:24Z</time>
      </trkpt>
      <trkpt lat="48.68208" lon="1.94941">
        <ele>161.7</ele>
        <time>2022-10-06T08:49:31Z</time>
      </trkpt>
      <trkpt lat="48.68202" lon="1.94952">
        <ele>162.1</ele>
        <time>2022-10-06T08:49:37Z</time>
      </trkpt>
      <trkpt lat="48.68195" lon="1.94965">
        <ele>162.5</ele>
        <time>2022-10-06T08:49:44Z</time>
      </trkpt>
      <trkpt lat="48.68189" lon="1.94977">
        <ele>162.8</ele>
        <time>2022-10-06T08:49:49Z</time>
      </trkpt>
      <trkpt lat="48.68183" lon="1.94989">
        <ele>162.9</ele>
        <time>2022-10-06T08:49:55Z</time>
      </trkpt>
      <trkpt lat="48.68176" lon="1.95">
        <ele>163</ele>
        <time>2022-10-06T08:50:03Z</time>
      </trkpt>
      <trkpt lat="48.68169" lon="1.9501">
        <ele>163</ele>
        <time>2022-10-06T08:50:10Z</time>
      </trkpt>
      <trkpt lat="48.68163" lon="1.95021">
        <ele>162.6</ele>
        <time>2022-10-06T08:50:16Z</time>
      </trkpt>
      <trkpt lat="48.68158" lon="1.95033">
        <ele>162.5</ele>
        <time>2022-10-06T08:50:23Z</time>
      </trkpt>
      <trkpt lat="48.68153" lon="1.95046">
        <ele>162.4</ele>
        <time>2022-10-06T08:50:29Z</time>
      </trkpt>
      <trkpt lat="48.6815" lon="1.9506">
        <ele>162.8</ele>
        <time>2022-10-06T08:50:36Z</time>
      </trkpt>
      <trkpt lat="48.68145" lon="1.95072">
        <ele>162.9</ele>
        <time>2022-10-06T08:50:42Z</time>
      </trkpt>
      <trkpt lat="48.68141" lon="1.95086">
        <ele>163.3</ele>
        <time>2022-10-06T08:50:49Z</time>
      </trkpt>
      <trkpt lat="48.68139" lon="1.95101">
        <ele>163.6</ele>
        <time>2022-10-06T08:50:55Z</time>
      </trkpt>
      <trkpt lat="48.68137" lon="1.95114">
        <ele>163.5</ele>
        <time>2022-10-06T08:51:02Z</time>
      </trkpt>
      <trkpt lat="48.68137" lon="1.95129">
        <ele>164.3</ele>
        <time>2022-10-06T08:51:09Z</time>
      </trkpt>
      <trkpt lat="48.68139" lon="1.95144">
        <ele>165</ele>
        <time>2022-10-06T08:51:17Z</time>
      </trkpt>
      <trkpt lat="48.68138" lon="1.95158">
        <ele>164.8</ele>
        <time>2022-10-06T08:51:23Z</time>
      </trkpt>
      <trkpt lat="48.68138" lon="1.95172">
        <ele>165</ele>
        <time>2022-10-06T08:51:37Z</time>
      </trkpt>
      <trkpt lat="48.68133" lon="1.95184">
        <ele>164.4</ele>
        <time>2022-10-06T08:51:47Z</time>
      </trkpt>
      <trkpt lat="48.68129" lon="1.95198">
        <ele>164.5</ele>
        <time>2022-10-06T08:51:56Z</time>
      </trkpt>
      <trkpt lat="48.68123" lon="1.95208">
        <ele>163.8</ele>
        <time>2022-10-06T08:52:04Z</time>
      </trkpt>
      <trkpt lat="48.68117" lon="1.95219">
        <ele>163.7</ele>
        <time>2022-10-06T08:52:11Z</time>
      </trkpt>
      <trkpt lat="48.68111" lon="1.95232">
        <ele>163.6</ele>
        <time>2022-10-06T08:52:18Z</time>
      </trkpt>
      <trkpt lat="48.68105" lon="1.95244">
        <ele>163.5</ele>
        <time>2022-10-06T08:52:28Z</time>
      </trkpt>
      <trkpt lat="48.68101" lon="1.95257">
        <ele>164.1</ele>
        <time>2022-10-06T08:52:35Z</time>
      </trkpt>
      <trkpt lat="48.68095" lon="1.9527">
        <ele>164.5</ele>
        <time>2022-10-06T08:52:42Z</time>
      </trkpt>
      <trkpt lat="48.68091" lon="1.95284">
        <ele>165</ele>
        <time>2022-10-06T08:52:49Z</time>
      </trkpt>
      <trkpt lat="48.68085" lon="1.95296">
        <ele>164.8</ele>
        <time>2022-10-06T08:52:56Z</time>
      </trkpt>
      <trkpt lat="48.68077" lon="1.95308">
        <ele>163.6</ele>
        <time>2022-10-06T08:53:04Z</time>
      </trkpt>
      <trkpt lat="48.68073" lon="1.9532">
        <ele>163.5</ele>
        <time>2022-10-06T08:53:10Z</time>
      </trkpt>
      <trkpt lat="48.68069" lon="1.95333">
        <ele>163.8</ele>
        <time>2022-10-06T08:53:17Z</time>
      </trkpt>
      <trkpt lat="48.68064" lon="1.95346">
        <ele>164.5</ele>
        <time>2022-10-06T08:53:24Z</time>
      </trkpt>
      <trkpt lat="48.68059" lon="1.95358">
        <ele>165.1</ele>
        <time>2022-10-06T08:53:30Z</time>
      </trkpt>
      <trkpt lat="48.68054" lon="1.95372">
        <ele>165</ele>
        <time>2022-10-06T08:53:37Z</time>
      </trkpt>
      <trkpt lat="48.6805" lon="1.95385">
        <ele>164.9</ele>
        <time>2022-10-06T08:53:44Z</time>
      </trkpt>
      <trkpt lat="48.68048" lon="1.95399">
        <ele>165.1</ele>
        <time>2022-10-06T08:53:50Z</time>
      </trkpt>
      <trkpt lat="48.68047" lon="1.95413">
        <ele>165.5</ele>
        <time>2022-10-06T08:53:56Z</time>
      </trkpt>
      <trkpt lat="48.68046" lon="1.95427">
        <ele>166</ele>
        <time>2022-10-06T08:54:02Z</time>
      </trkpt>
      <trkpt lat="48.68045" lon="1.95442">
        <ele>166.5</ele>
        <time>2022-10-06T08:54:08Z</time>
      </trkpt>
      <trkpt lat="48.68043" lon="1.95458">
        <ele>166.2</ele>
        <time>2022-10-06T08:54:15Z</time>
      </trkpt>
      <trkpt lat="48.68038" lon="1.95471">
        <ele>165.5</ele>
        <time>2022-10-06T08:54:23Z</time>
      </trkpt>
      <trkpt lat="48.68033" lon="1.95483">
        <ele>165.2</ele>
        <time>2022-10-06T08:54:29Z</time>
      </trkpt>
      <trkpt lat="48.68029" lon="1.95496">
        <ele>165.1</ele>
        <time>2022-10-06T08:54:37Z</time>
      </trkpt>
      <trkpt lat="48.68025" lon="1.9551">
        <ele>165.1</ele>
        <time>2022-10-06T08:54:45Z</time>
      </trkpt>
      <trkpt lat="48.68021" lon="1.95523">
        <ele>165.2</ele>
        <time>2022-10-06T08:54:51Z</time>
      </trkpt>
      <trkpt lat="48.68017" lon="1.95534">
        <ele>165</ele>
        <time>2022-10-06T08:54:57Z</time>
      </trkpt>
      <trkpt lat="48.68012" lon="1.95547">
        <ele>165</ele>
        <time>2022-10-06T08:55:04Z</time>
      </trkpt>
      <trkpt lat="48.68007" lon="1.95559">
        <ele>165.3</ele>
        <time>2022-10-06T08:55:10Z</time>
      </trkpt>
      <trkpt lat="48.68001" lon="1.95573">
        <ele>165.4</ele>
        <time>2022-10-06T08:55:17Z</time>
      </trkpt>
      <trkpt lat="48.67997" lon="1.95587">
        <ele>165.6</ele>
        <time>2022-10-06T08:55:24Z</time>
      </trkpt>
      <trkpt lat="48.67993" lon="1.95601">
        <ele>165.6</ele>
        <time>2022-10-06T08:55:30Z</time>
      </trkpt>
      <trkpt lat="48.6799" lon="1.95614">
        <ele>166</ele>
        <time>2022-10-06T08:55:36Z</time>
      </trkpt>
      <trkpt lat="48.67984" lon="1.95625">
        <ele>166.1</ele>
        <time>2022-10-06T08:55:43Z</time>
      </trkpt>
      <trkpt lat="48.67979" lon="1.95639">
        <ele>166.9</ele>
        <time>2022-10-06T08:55:50Z</time>
      </trkpt>
      <trkpt lat="48.67973" lon="1.95652">
        <ele>167</ele>
        <time>2022-10-06T08:55:57Z</time>
      </trkpt>
      <trkpt lat="48.67969" lon="1.95665">
        <ele>167.1</ele>
        <time>2022-10-06T08:56:04Z</time>
      </trkpt>
      <trkpt lat="48.67964" lon="1.95678">
        <ele>166.9</ele>
        <time>2022-10-06T08:56:11Z</time>
      </trkpt>
      <trkpt lat="48.67959" lon="1.95691">
        <ele>166.9</ele>
        <time>2022-10-06T08:56:18Z</time>
      </trkpt>
      <trkpt lat="48.67955" lon="1.95704">
        <ele>167.2</ele>
        <time>2022-10-06T08:56:24Z</time>
      </trkpt>
      <trkpt lat="48.67953" lon="1.95718">
        <ele>167.6</ele>
        <time>2022-10-06T08:56:32Z</time>
      </trkpt>
      <trkpt lat="48.67949" lon="1.95731">
        <ele>168.1</ele>
        <time>2022-10-06T08:56:38Z</time>
      </trkpt>
      <trkpt lat="48.67946" lon="1.95746">
        <ele>168.8</ele>
        <time>2022-10-06T08:56:46Z</time>
      </trkpt>
      <trkpt lat="48.67941" lon="1.95758">
        <ele>168.7</ele>
        <time>2022-10-06T08:56:53Z</time>
      </trkpt>
      <trkpt lat="48.67937" lon="1.95771">
        <ele>168.4</ele>
        <time>2022-10-06T08:56:59Z</time>
      </trkpt>
      <trkpt lat="48.67933" lon="1.95784">
        <ele>168.3</ele>
        <time>2022-10-06T08:57:07Z</time>
      </trkpt>
      <trkpt lat="48.67929" lon="1.95797">
        <ele>168.3</ele>
        <time>2022-10-06T08:57:14Z</time>
      </trkpt>
      <trkpt lat="48.67925" lon="1.9581">
        <ele>168.3</ele>
        <time>2022-10-06T08:57:21Z</time>
      </trkpt>
      <trkpt lat="48.67922" lon="1.95824">
        <ele>168.4</ele>
        <time>2022-10-06T08:57:28Z</time>
      </trkpt>
      <trkpt lat="48.67917" lon="1.95836">
        <ele>168.2</ele>
        <time>2022-10-06T08:57:36Z</time>
      </trkpt>
      <trkpt lat="48.67912" lon="1.95848">
        <ele>167.5</ele>
        <time>2022-10-06T08:57:43Z</time>
      </trkpt>
      <trkpt lat="48.67907" lon="1.95861">
        <ele>167.2</ele>
        <time>2022-10-06T08:57:51Z</time>
      </trkpt>
      <trkpt lat="48.67903" lon="1.95875">
        <ele>167</ele>
        <time>2022-10-06T08:57:59Z</time>
      </trkpt>
      <trkpt lat="48.67898" lon="1.95887">
        <ele>166.7</ele>
        <time>2022-10-06T08:58:06Z</time>
      </trkpt>
      <trkpt lat="48.67893" lon="1.95898">
        <ele>166.6</ele>
        <time>2022-10-06T08:58:13Z</time>
      </trkpt>
      <trkpt lat="48.67887" lon="1.9591">
        <ele>166.7</ele>
        <time>2022-10-06T08:58:22Z</time>
      </trkpt>
      <trkpt lat="48.67883" lon="1.95923">
        <ele>166.6</ele>
        <time>2022-10-06T08:58:30Z</time>
      </trkpt>
      <trkpt lat="48.67878" lon="1.95934">
        <ele>166.3</ele>
        <time>2022-10-06T08:58:37Z</time>
      </trkpt>
      <trkpt lat="48.67873" lon="1.95947">
        <ele>166.3</ele>
        <time>2022-10-06T08:58:44Z</time>
      </trkpt>
      <trkpt lat="48.67869" lon="1.95959">
        <ele>166.4</ele>
        <time>2022-10-06T08:58:52Z</time>
      </trkpt>
      <trkpt lat="48.67863" lon="1.95969">
        <ele>166</ele>
        <time>2022-10-06T08:58:58Z</time>
      </trkpt>
      <trkpt lat="48.67857" lon="1.95981">
        <ele>165.4</ele>
        <time>2022-10-06T08:59:05Z</time>
      </trkpt>
      <trkpt lat="48.67851" lon="1.95993">
        <ele>164.8</ele>
        <time>2022-10-06T08:59:11Z</time>
      </trkpt>
      <trkpt lat="48.67843" lon="1.96002">
        <ele>163.7</ele>
        <time>2022-10-06T08:59:18Z</time>
      </trkpt>
      <trkpt lat="48.67836" lon="1.96011">
        <ele>163.1</ele>
        <time>2022-10-06T08:59:25Z</time>
      </trkpt>
      <trkpt lat="48.67829" lon="1.96021">
        <ele>162.7</ele>
        <time>2022-10-06T08:59:33Z</time>
      </trkpt>
      <trkpt lat="48.67823" lon="1.96031">
        <ele>162</ele>
        <time>2022-10-06T08:59:41Z</time>
      </trkpt>
      <trkpt lat="48.67816" lon="1.96041">
        <ele>161.2</ele>
        <time>2022-10-06T08:59:49Z</time>
      </trkpt>
      <trkpt lat="48.67813" lon="1.96054">
        <ele>162</ele>
        <time>2022-10-06T08:59:57Z</time>
      </trkpt>
      <trkpt lat="48.6781" lon="1.96067">
        <ele>162.2</ele>
        <time>2022-10-06T09:00:11Z</time>
      </trkpt>
      <trkpt lat="48.67805" lon="1.9608">
        <ele>162.3</ele>
        <time>2022-10-06T09:00:20Z</time>
      </trkpt>
      <trkpt lat="48.678" lon="1.96093">
        <ele>161.8</ele>
        <time>2022-10-06T09:00:28Z</time>
      </trkpt>
      <trkpt lat="48.67795" lon="1.96105">
        <ele>161.4</ele>
        <time>2022-10-06T09:00:35Z</time>
      </trkpt>
      <trkpt lat="48.67793" lon="1.96119">
        <ele>162.3</ele>
        <time>2022-10-06T09:00:42Z</time>
      </trkpt>
      <trkpt lat="48.6779" lon="1.96133">
        <ele>163.2</ele>
        <time>2022-10-06T09:00:49Z</time>
      </trkpt>
      <trkpt lat="48.67786" lon="1.96146">
        <ele>163.5</ele>
        <time>2022-10-06T09:00:55Z</time>
      </trkpt>
      <trkpt lat="48.67786" lon="1.9616">
        <ele>164.4</ele>
        <time>2022-10-06T09:01:02Z</time>
      </trkpt>
      <trkpt lat="48.67789" lon="1.96173">
        <ele>165.1</ele>
        <time>2022-10-06T09:01:09Z</time>
      </trkpt>
      <trkpt lat="48.67794" lon="1.96187">
        <ele>165.5</ele>
        <time>2022-10-06T09:01:17Z</time>
      </trkpt>
      <trkpt lat="48.67799" lon="1.962">
        <ele>165.5</ele>
        <time>2022-10-06T09:01:24Z</time>
      </trkpt>
      <trkpt lat="48.67802" lon="1.96214">
        <ele>164.8</ele>
        <time>2022-10-06T09:01:32Z</time>
      </trkpt>
      <trkpt lat="48.67809" lon="1.96225">
        <ele>165.4</ele>
        <time>2022-10-06T09:01:41Z</time>
      </trkpt>
      <trkpt lat="48.67813" lon="1.96237">
        <ele>165.9</ele>
        <time>2022-10-06T09:01:50Z</time>
      </trkpt>
      <trkpt lat="48.67821" lon="1.96247">
        <ele>166.8</ele>
        <time>2022-10-06T09:01:58Z</time>
      </trkpt>
      <trkpt lat="48.67827" lon="1.96257">
        <ele>167.6</ele>
        <time>2022-10-06T09:02:05Z</time>
      </trkpt>
      <trkpt lat="48.67833" lon="1.96268">
        <ele>168.2</ele>
        <time>2022-10-06T09:02:12Z</time>
      </trkpt>
      <trkpt lat="48.67834" lon="1.96282">
        <ele>167.6</ele>
        <time>2022-10-06T09:02:21Z</time>
      </trkpt>
      <trkpt lat="48.67843" lon="1.96287">
        <ele>167.4</ele>
        <time>2022-10-06T09:05:11Z</time>
      </trkpt>
      <trkpt lat="48.67852" lon="1.96293">
        <ele>167</ele>
        <time>2022-10-06T09:05:18Z</time>
      </trkpt>
      <trkpt lat="48.67862" lon="1.96299">
        <ele>166.7</ele>
        <time>2022-10-06T09:05:25Z</time>
      </trkpt>
      <trkpt lat="48.6787" lon="1.96305">
        <ele>166.3</ele>
        <time>2022-10-06T09:05:31Z</time>
      </trkpt>
      <trkpt lat="48.67878" lon="1.96313">
        <ele>165.6</ele>
        <time>2022-10-06T09:05:38Z</time>
      </trkpt>
      <trkpt lat="48.67887" lon="1.96316">
        <ele>165.5</ele>
        <time>2022-10-06T09:05:45Z</time>
      </trkpt>
      <trkpt lat="48.67897" lon="1.96318">
        <ele>165</ele>
        <time>2022-10-06T09:05:52Z</time>
      </trkpt>
      <trkpt lat="48.67907" lon="1.96316">
        <ele>165.1</ele>
        <time>2022-10-06T09:05:58Z</time>
      </trkpt>
      <trkpt lat="48.67916" lon="1.96313">
        <ele>165.2</ele>
        <time>2022-10-06T09:06:04Z</time>
      </trkpt>
      <trkpt lat="48.67926" lon="1.96309">
        <ele>165.6</ele>
        <time>2022-10-06T09:06:14Z</time>
      </trkpt>
      <trkpt lat="48.67936" lon="1.96308">
        <ele>165.7</ele>
        <time>2022-10-06T09:06:20Z</time>
      </trkpt>
      <trkpt lat="48.67945" lon="1.96307">
        <ele>165.8</ele>
        <time>2022-10-06T09:06:27Z</time>
      </trkpt>
      <trkpt lat="48.67955" lon="1.96305">
        <ele>165.7</ele>
        <time>2022-10-06T09:06:35Z</time>
      </trkpt>
      <trkpt lat="48.67965" lon="1.96301">
        <ele>165.7</ele>
        <time>2022-10-06T09:06:43Z</time>
      </trkpt>
      <trkpt lat="48.67975" lon="1.96299">
        <ele>165.7</ele>
        <time>2022-10-06T09:06:49Z</time>
      </trkpt>
      <trkpt lat="48.67984" lon="1.96293">
        <ele>166.4</ele>
        <time>2022-10-06T09:06:58Z</time>
      </trkpt>
      <trkpt lat="48.67994" lon="1.96292">
        <ele>166.5</ele>
        <time>2022-10-06T09:07:05Z</time>
      </trkpt>
      <trkpt lat="48.68004" lon="1.9629">
        <ele>166.7</ele>
        <time>2022-10-06T09:07:12Z</time>
      </trkpt>
      <trkpt lat="48.68014" lon="1.96286">
        <ele>167.1</ele>
        <time>2022-10-06T09:07:21Z</time>
      </trkpt>
      <trkpt lat="48.68024" lon="1.96285">
        <ele>167.2</ele>
        <time>2022-10-06T09:07:28Z</time>
      </trkpt>
      <trkpt lat="48.68033" lon="1.96284">
        <ele>167.2</ele>
        <time>2022-10-06T09:07:34Z</time>
      </trkpt>
      <trkpt lat="48.68042" lon="1.9628">
        <ele>167.3</ele>
        <time>2022-10-06T09:07:40Z</time>
      </trkpt>
      <trkpt lat="48.68052" lon="1.96276">
        <ele>167.2</ele>
        <time>2022-10-06T09:07:46Z</time>
      </trkpt>
      <trkpt lat="48.68062" lon="1.96275">
        <ele>166.6</ele>
        <time>2022-10-06T09:07:54Z</time>
      </trkpt>
      <trkpt lat="48.68071" lon="1.96278">
        <ele>165.9</ele>
        <time>2022-10-06T09:08:00Z</time>
      </trkpt>
      <trkpt lat="48.6808" lon="1.96279">
        <ele>165.1</ele>
        <time>2022-10-06T09:08:05Z</time>
      </trkpt>
      <trkpt lat="48.6809" lon="1.96276">
        <ele>164.8</ele>
        <time>2022-10-06T09:08:10Z</time>
      </trkpt>
      <trkpt lat="48.681" lon="1.96274">
        <ele>164.4</ele>
        <time>2022-10-06T09:08:15Z</time>
      </trkpt>
      <trkpt lat="48.68109" lon="1.96272">
        <ele>164.1</ele>
        <time>2022-10-06T09:08:19Z</time>
      </trkpt>
      <trkpt lat="48.68118" lon="1.96271">
        <ele>163.2</ele>
        <time>2022-10-06T09:08:24Z</time>
      </trkpt>
      <trkpt lat="48.68127" lon="1.96267">
        <ele>162.2</ele>
        <time>2022-10-06T09:08:29Z</time>
      </trkpt>
      <trkpt lat="48.68137" lon="1.96263">
        <ele>161.2</ele>
        <time>2022-10-06T09:08:35Z</time>
      </trkpt>
      <trkpt lat="48.68146" lon="1.96258">
        <ele>161.2</ele>
        <time>2022-10-06T09:08:42Z</time>
      </trkpt>
      <trkpt lat="48.68155" lon="1.96252">
        <ele>162</ele>
        <time>2022-10-06T09:08:49Z</time>
      </trkpt>
      <trkpt lat="48.68163" lon="1.96245">
        <ele>162.8</ele>
        <time>2022-10-06T09:08:56Z</time>
      </trkpt>
      <trkpt lat="48.68172" lon="1.96239">
        <ele>163.6</ele>
        <time>2022-10-06T09:09:03Z</time>
      </trkpt>
      <trkpt lat="48.68181" lon="1.96233">
        <ele>164.3</ele>
        <time>2022-10-06T09:09:10Z</time>
      </trkpt>
      <trkpt lat="48.68191" lon="1.96227">
        <ele>165.3</ele>
        <time>2022-10-06T09:09:16Z</time>
      </trkpt>
      <trkpt lat="48.682" lon="1.96222">
        <ele>165.8</ele>
        <time>2022-10-06T09:09:23Z</time>
      </trkpt>
      <trkpt lat="48.68208" lon="1.96216">
        <ele>165.8</ele>
        <time>2022-10-06T09:09:30Z</time>
      </trkpt>
      <trkpt lat="48.68217" lon="1.96212">
        <ele>165.9</ele>
        <time>2022-10-06T09:09:36Z</time>
      </trkpt>
      <trkpt lat="48.68226" lon="1.96206">
        <ele>166.1</ele>
        <time>2022-10-06T09:09:45Z</time>
      </trkpt>
      <trkpt lat="48.68234" lon="1.962">
        <ele>166.3</ele>
        <time>2022-10-06T09:09:51Z</time>
      </trkpt>
      <trkpt lat="48.68243" lon="1.96194">
        <ele>166.3</ele>
        <time>2022-10-06T09:09:58Z</time>
      </trkpt>
      <trkpt lat="48.68252" lon="1.9619">
        <ele>166.1</ele>
        <time>2022-10-06T09:10:25Z</time>
      </trkpt>
      <trkpt lat="48.6826" lon="1.96183">
        <ele>165.8</ele>
        <time>2022-10-06T09:10:34Z</time>
      </trkpt>
      <trkpt lat="48.68268" lon="1.96177">
        <ele>165.7</ele>
        <time>2022-10-06T09:10:41Z</time>
      </trkpt>
      <trkpt lat="48.68276" lon="1.96171">
        <ele>165.8</ele>
        <time>2022-10-06T09:10:49Z</time>
      </trkpt>
      <trkpt lat="48.68286" lon="1.96165">
        <ele>165.8</ele>
        <time>2022-10-06T09:10:57Z</time>
      </trkpt>
      <trkpt lat="48.68296" lon="1.9616">
        <ele>165.6</ele>
        <time>2022-10-06T09:11:03Z</time>
      </trkpt>
      <trkpt lat="48.68305" lon="1.96156">
        <ele>165.4</ele>
        <time>2022-10-06T09:11:10Z</time>
      </trkpt>
      <trkpt lat="48.68314" lon="1.9615">
        <ele>165.2</ele>
        <time>2022-10-06T09:11:16Z</time>
      </trkpt>
      <trkpt lat="48.68323" lon="1.96145">
        <ele>165</ele>
        <time>2022-10-06T09:11:21Z</time>
      </trkpt>
      <trkpt lat="48.68332" lon="1.9614">
        <ele>165</ele>
        <time>2022-10-06T09:11:28Z</time>
      </trkpt>
      <trkpt lat="48.68342" lon="1.96135">
        <ele>164.4</ele>
        <time>2022-10-06T09:11:35Z</time>
      </trkpt>
      <trkpt lat="48.68351" lon="1.96133">
        <ele>163.9</ele>
        <time>2022-10-06T09:11:42Z</time>
      </trkpt>
      <trkpt lat="48.6836" lon="1.96128">
        <ele>163.5</ele>
        <time>2022-10-06T09:11:52Z</time>
      </trkpt>
      <trkpt lat="48.6837" lon="1.96127">
        <ele>162.5</ele>
        <time>2022-10-06T09:11:57Z</time>
      </trkpt>
      <trkpt lat="48.68379" lon="1.96128">
        <ele>161.4</ele>
        <time>2022-10-06T09:12:02Z</time>
      </trkpt>
      <trkpt lat="48.6839" lon="1.96127">
        <ele>160.3</ele>
        <time>2022-10-06T09:12:10Z</time>
      </trkpt>
      <trkpt lat="48.68399" lon="1.96125">
        <ele>158.6</ele>
        <time>2022-10-06T09:12:19Z</time>
      </trkpt>
      <trkpt lat="48.68409" lon="1.96123">
        <ele>157</ele>
        <time>2022-10-06T09:12:28Z</time>
      </trkpt>
      <trkpt lat="48.68418" lon="1.96117">
        <ele>155.6</ele>
        <time>2022-10-06T09:12:47Z</time>
      </trkpt>
      <trkpt lat="48.68428" lon="1.96113">
        <ele>154.3</ele>
        <time>2022-10-06T09:12:52Z</time>
      </trkpt>
      <trkpt lat="48.68438" lon="1.96111">
        <ele>153</ele>
        <time>2022-10-06T09:12:58Z</time>
      </trkpt>
      <trkpt lat="48.68447" lon="1.96108">
        <ele>152.1</ele>
        <time>2022-10-06T09:13:06Z</time>
      </trkpt>
      <trkpt lat="48.68456" lon="1.96107">
        <ele>151.8</ele>
        <time>2022-10-06T09:13:14Z</time>
      </trkpt>
      <trkpt lat="48.68463" lon="1.96097">
        <ele>152</ele>
        <time>2022-10-06T09:13:21Z</time>
      </trkpt>
      <trkpt lat="48.6847" lon="1.96087">
        <ele>152</ele>
        <time>2022-10-06T09:13:28Z</time>
      </trkpt>
      <trkpt lat="48.68479" lon="1.96081">
        <ele>153.1</ele>
        <time>2022-10-06T09:13:34Z</time>
      </trkpt>
      <trkpt lat="48.68487" lon="1.96075">
        <ele>154.5</ele>
        <time>2022-10-06T09:13:40Z</time>
      </trkpt>
      <trkpt lat="48.68497" lon="1.9607">
        <ele>155.6</ele>
        <time>2022-10-06T09:13:46Z</time>
      </trkpt>
      <trkpt lat="48.68503" lon="1.96059">
        <ele>156.9</ele>
        <time>2022-10-06T09:13:54Z</time>
      </trkpt>
      <trkpt lat="48.68512" lon="1.9605">
        <ele>158.8</ele>
        <time>2022-10-06T09:14:02Z</time>
      </trkpt>
      <trkpt lat="48.68518" lon="1.96038">
        <ele>160.1</ele>
        <time>2022-10-06T09:14:11Z</time>
      </trkpt>
      <trkpt lat="48.68523" lon="1.96026">
        <ele>161</ele>
        <time>2022-10-06T09:14:19Z</time>
      </trkpt>
      <trkpt lat="48.68525" lon="1.96012">
        <ele>161.5</ele>
        <time>2022-10-06T09:14:27Z</time>
      </trkpt>
      <trkpt lat="48.6853" lon="1.96">
        <ele>162.4</ele>
        <time>2022-10-06T09:14:35Z</time>
      </trkpt>
      <trkpt lat="48.68535" lon="1.95986">
        <ele>163</ele>
        <time>2022-10-06T09:14:42Z</time>
      </trkpt>
      <trkpt lat="48.68539" lon="1.95972">
        <ele>163.7</ele>
        <time>2022-10-06T09:14:49Z</time>
      </trkpt>
      <trkpt lat="48.68544" lon="1.95959">
        <ele>164.3</ele>
        <time>2022-10-06T09:14:57Z</time>
      </trkpt>
      <trkpt lat="48.68549" lon="1.95947">
        <ele>165.1</ele>
        <time>2022-10-06T09:15:08Z</time>
      </trkpt>
      <trkpt lat="48.68552" lon="1.95933">
        <ele>165.5</ele>
        <time>2022-10-06T09:15:31Z</time>
      </trkpt>
      <trkpt lat="48.68552" lon="1.95919">
        <ele>165.5</ele>
        <time>2022-10-06T09:15:38Z</time>
      </trkpt>
      <trkpt lat="48.68554" lon="1.95904">
        <ele>165.7</ele>
        <time>2022-10-06T09:15:46Z</time>
      </trkpt>
      <trkpt lat="48.68562" lon="1.95897">
        <ele>166.4</ele>
        <time>2022-10-06T09:16:05Z</time>
      </trkpt>
      <trkpt lat="48.68571" lon="1.95896">
        <ele>167.1</ele>
        <time>2022-10-06T09:16:18Z</time>
      </trkpt>
      <trkpt lat="48.6858" lon="1.95901">
        <ele>167.7</ele>
        <time>2022-10-06T09:16:28Z</time>
      </trkpt>
      <trkpt lat="48.68589" lon="1.95906">
        <ele>168.4</ele>
        <time>2022-10-06T09:16:37Z</time>
      </trkpt>
      <trkpt lat="48.68599" lon="1.95902">
        <ele>169.1</ele>
        <time>2022-10-06T09:16:47Z</time>
      </trkpt>
      <trkpt lat="48.68609" lon="1.95903">
        <ele>169.8</ele>
        <time>2022-10-06T09:16:56Z</time>
      </trkpt>
      <trkpt lat="48.68618" lon="1.95909">
        <ele>170.2</ele>
        <time>2022-10-06T09:17:03Z</time>
      </trkpt>
      <trkpt lat="48.68627" lon="1.95914">
        <ele>170.6</ele>
        <time>2022-10-06T09:17:11Z</time>
      </trkpt>
      <trkpt lat="48.68636" lon="1.95916">
        <ele>170.9</ele>
        <time>2022-10-06T09:17:19Z</time>
      </trkpt>
      <trkpt lat="48.68646" lon="1.95919">
        <ele>171.2</ele>
        <time>2022-10-06T09:17:25Z</time>
      </trkpt>
      <trkpt lat="48.68654" lon="1.95926">
        <ele>171.2</ele>
        <time>2022-10-06T09:17:33Z</time>
      </trkpt>
      <trkpt lat="48.68661" lon="1.95933">
        <ele>171.2</ele>
        <time>2022-10-06T09:17:42Z</time>
      </trkpt>
      <trkpt lat="48.68664" lon="1.95947">
        <ele>170.9</ele>
        <time>2022-10-06T09:17:58Z</time>
      </trkpt>
      <trkpt lat="48.68663" lon="1.95962">
        <ele>170.9</ele>
        <time>2022-10-06T09:18:07Z</time>
      </trkpt>
      <trkpt lat="48.68664" lon="1.95976">
        <ele>171</ele>
        <time>2022-10-06T09:18:15Z</time>
      </trkpt>
      <trkpt lat="48.68661" lon="1.95991">
        <ele>171.4</ele>
        <time>2022-10-06T09:18:24Z</time>
      </trkpt>
      <trkpt lat="48.68658" lon="1.96006">
        <ele>171.4</ele>
        <time>2022-10-06T09:18:30Z</time>
      </trkpt>
      <trkpt lat="48.6866" lon="1.96021">
        <ele>171.5</ele>
        <time>2022-10-06T09:18:38Z</time>
      </trkpt>
      <trkpt lat="48.68662" lon="1.96035">
        <ele>171.7</ele>
        <time>2022-10-06T09:18:46Z</time>
      </trkpt>
      <trkpt lat="48.68662" lon="1.96049">
        <ele>171.8</ele>
        <time>2022-10-06T09:18:55Z</time>
      </trkpt>
      <trkpt lat="48.68662" lon="1.96064">
        <ele>171.8</ele>
        <time>2022-10-06T09:19:03Z</time>
      </trkpt>
      <trkpt lat="48.68658" lon="1.96077">
        <ele>171.7</ele>
        <time>2022-10-06T09:19:11Z</time>
      </trkpt>
      <trkpt lat="48.68653" lon="1.96089">
        <ele>171.4</ele>
        <time>2022-10-06T09:19:17Z</time>
      </trkpt>
      <trkpt lat="48.68648" lon="1.96101">
        <ele>171.1</ele>
        <time>2022-10-06T09:19:23Z</time>
      </trkpt>
      <trkpt lat="48.68644" lon="1.96113">
        <ele>170.9</ele>
        <time>2022-10-06T09:19:28Z</time>
      </trkpt>
      <trkpt lat="48.68637" lon="1.96124">
        <ele>170</ele>
        <time>2022-10-06T09:19:34Z</time>
      </trkpt>
      <trkpt lat="48.68633" lon="1.96137">
        <ele>168.9</ele>
        <time>2022-10-06T09:19:41Z</time>
      </trkpt>
      <trkpt lat="48.68629" lon="1.9615">
        <ele>167.1</ele>
        <time>2022-10-06T09:19:50Z</time>
      </trkpt>
      <trkpt lat="48.68622" lon="1.96161">
        <ele>165.3</ele>
        <time>2022-10-06T09:20:03Z</time>
      </trkpt>
      <trkpt lat="48.68618" lon="1.96173">
        <ele>162.8</ele>
        <time>2022-10-06T09:20:14Z</time>
      </trkpt>
      <trkpt lat="48.68619" lon="1.96187">
        <ele>159.8</ele>
        <time>2022-10-06T09:20:23Z</time>
      </trkpt>
      <trkpt lat="48.68624" lon="1.96201">
        <ele>157</ele>
        <time>2022-10-06T09:20:33Z</time>
      </trkpt>
      <trkpt lat="48.6863" lon="1.96212">
        <ele>154.9</ele>
        <time>2022-10-06T09:20:41Z</time>
      </trkpt>
      <trkpt lat="48.68639" lon="1.96221">
        <ele>153.3</ele>
        <time>2022-10-06T09:20:50Z</time>
      </trkpt>
      <trkpt lat="48.68642" lon="1.96234">
        <ele>150.6</ele>
        <time>2022-10-06T09:20:59Z</time>
      </trkpt>
      <trkpt lat="48.68645" lon="1.96248">
        <ele>148</ele>
        <time>2022-10-06T09:21:08Z</time>
      </trkpt>
      <trkpt lat="48.68653" lon="1.96256">
        <ele>146.1</ele>
        <time>2022-10-06T09:21:17Z</time>
      </trkpt>
      <trkpt lat="48.68663" lon="1.96259">
        <ele>145.1</ele>
        <time>2022-10-06T09:21:56Z</time>
      </trkpt>
      <trkpt lat="48.68672" lon="1.96265">
        <ele>143.3</ele>
        <time>2022-10-06T09:22:06Z</time>
      </trkpt>
      <trkpt lat="48.68681" lon="1.96266">
        <ele>142.4</ele>
        <time>2022-10-06T09:22:14Z</time>
      </trkpt>
      <trkpt lat="48.68691" lon="1.96269">
        <ele>141.3</ele>
        <time>2022-10-06T09:22:22Z</time>
      </trkpt>
      <trkpt lat="48.687" lon="1.96273">
        <ele>140.4</ele>
        <time>2022-10-06T09:22:30Z</time>
      </trkpt>
      <trkpt lat="48.6871" lon="1.96276">
        <ele>139.7</ele>
        <time>2022-10-06T09:22:37Z</time>
      </trkpt>
      <trkpt lat="48.6872" lon="1.96279">
        <ele>139</ele>
        <time>2022-10-06T09:22:42Z</time>
      </trkpt>
      <trkpt lat="48.68729" lon="1.96284">
        <ele>138</ele>
        <time>2022-10-06T09:22:51Z</time>
      </trkpt>
      <trkpt lat="48.68737" lon="1.9629">
        <ele>136.8</ele>
        <time>2022-10-06T09:23:00Z</time>
      </trkpt>
      <trkpt lat="48.68746" lon="1.96298">
        <ele>135.2</ele>
        <time>2022-10-06T09:23:09Z</time>
      </trkpt>
      <trkpt lat="48.68755" lon="1.96305">
        <ele>133.7</ele>
        <time>2022-10-06T09:23:16Z</time>
      </trkpt>
      <trkpt lat="48.68765" lon="1.96311">
        <ele>132.7</ele>
        <time>2022-10-06T09:23:23Z</time>
      </trkpt>
      <trkpt lat="48.68774" lon="1.9632">
        <ele>131.4</ele>
        <time>2022-10-06T09:23:28Z</time>
      </trkpt>
      <trkpt lat="48.68782" lon="1.96325">
        <ele>130.6</ele>
        <time>2022-10-06T09:23:34Z</time>
      </trkpt>
      <trkpt lat="48.68791" lon="1.9633">
        <ele>129.9</ele>
        <time>2022-10-06T09:23:45Z</time>
      </trkpt>
      <trkpt lat="48.68798" lon="1.9634">
        <ele>128.9</ele>
        <time>2022-10-06T09:23:53Z</time>
      </trkpt>
      <trkpt lat="48.68801" lon="1.96353">
        <ele>128</ele>
        <time>2022-10-06T09:24:01Z</time>
      </trkpt>
      <trkpt lat="48.68808" lon="1.96362">
        <ele>126.8</ele>
        <time>2022-10-06T09:24:08Z</time>
      </trkpt>
      <trkpt lat="48.68817" lon="1.9637">
        <ele>125.7</ele>
        <time>2022-10-06T09:24:17Z</time>
      </trkpt>
      <trkpt lat="48.68825" lon="1.96375">
        <ele>124.7</ele>
        <time>2022-10-06T09:24:24Z</time>
      </trkpt>
      <trkpt lat="48.68836" lon="1.96378">
        <ele>123.7</ele>
        <time>2022-10-06T09:24:32Z</time>
      </trkpt>
      <trkpt lat="48.68845" lon="1.96373">
        <ele>123.5</ele>
        <time>2022-10-06T09:24:40Z</time>
      </trkpt>
      <trkpt lat="48.68853" lon="1.96363">
        <ele>123.5</ele>
        <time>2022-10-06T09:24:50Z</time>
      </trkpt>
      <trkpt lat="48.68857" lon="1.96349">
        <ele>124.7</ele>
        <time>2022-10-06T09:24:59Z</time>
      </trkpt>
      <trkpt lat="48.68861" lon="1.96336">
        <ele>125.8</ele>
        <time>2022-10-06T09:25:07Z</time>
      </trkpt>
      <trkpt lat="48.68865" lon="1.96323">
        <ele>126.5</ele>
        <time>2022-10-06T09:25:16Z</time>
      </trkpt>
      <trkpt lat="48.68867" lon="1.96307">
        <ele>127.3</ele>
        <time>2022-10-06T09:25:24Z</time>
      </trkpt>
      <trkpt lat="48.68865" lon="1.96293">
        <ele>128.1</ele>
        <time>2022-10-06T09:25:30Z</time>
      </trkpt>
      <trkpt lat="48.68865" lon="1.96278">
        <ele>128.8</ele>
        <time>2022-10-06T09:25:36Z</time>
      </trkpt>
      <trkpt lat="48.6887" lon="1.96267">
        <ele>128.9</ele>
        <time>2022-10-06T09:25:47Z</time>
      </trkpt>
      <trkpt lat="48.6888" lon="1.96265">
        <ele>128.4</ele>
        <time>2022-10-06T09:25:54Z</time>
      </trkpt>
      <trkpt lat="48.68889" lon="1.96265">
        <ele>127.9</ele>
        <time>2022-10-06T09:26:01Z</time>
      </trkpt>
      <trkpt lat="48.68898" lon="1.96257">
        <ele>128.6</ele>
        <time>2022-10-06T09:26:09Z</time>
      </trkpt>
      <trkpt lat="48.68907" lon="1.96254">
        <ele>128.8</ele>
        <time>2022-10-06T09:26:16Z</time>
      </trkpt>
      <trkpt lat="48.68917" lon="1.9625">
        <ele>129</ele>
        <time>2022-10-06T09:26:22Z</time>
      </trkpt>
      <trkpt lat="48.68925" lon="1.96244">
        <ele>130.9</ele>
        <time>2022-10-06T09:26:28Z</time>
      </trkpt>
      <trkpt lat="48.68934" lon="1.96238">
        <ele>132.8</ele>
        <time>2022-10-06T09:26:34Z</time>
      </trkpt>
      <trkpt lat="48.68943" lon="1.96235">
        <ele>134.1</ele>
        <time>2022-10-06T09:26:41Z</time>
      </trkpt>
      <trkpt lat="48.68953" lon="1.96241">
        <ele>134.9</ele>
        <time>2022-10-06T09:26:47Z</time>
      </trkpt>
      <trkpt lat="48.68961" lon="1.9625">
        <ele>135.7</ele>
        <time>2022-10-06T09:26:54Z</time>
      </trkpt>
      <trkpt lat="48.68969" lon="1.9626">
        <ele>137.6</ele>
        <time>2022-10-06T09:27:01Z</time>
      </trkpt>
      <trkpt lat="48.68971" lon="1.96274">
        <ele>138.7</ele>
        <time>2022-10-06T09:27:09Z</time>
      </trkpt>
      <trkpt lat="48.68972" lon="1.96288">
        <ele>139.2</ele>
        <time>2022-10-06T09:27:16Z</time>
      </trkpt>
      <trkpt lat="48.68974" lon="1.96303">
        <ele>140.3</ele>
        <time>2022-10-06T09:27:23Z</time>
      </trkpt>
      <trkpt lat="48.68979" lon="1.96316">
        <ele>142.3</ele>
        <time>2022-10-06T09:27:45Z</time>
      </trkpt>
      <trkpt lat="48.68982" lon="1.96329">
        <ele>143.4</ele>
        <time>2022-10-06T09:27:52Z</time>
      </trkpt>
      <trkpt lat="48.68988" lon="1.96341">
        <ele>144.5</ele>
        <time>2022-10-06T09:28:03Z</time>
      </trkpt>
      <trkpt lat="48.68995" lon="1.96349">
        <ele>145.5</ele>
        <time>2022-10-06T09:28:11Z</time>
      </trkpt>
      <trkpt lat="48.69002" lon="1.96361">
        <ele>146.3</ele>
        <time>2022-10-06T09:28:19Z</time>
      </trkpt>
      <trkpt lat="48.6901" lon="1.96368">
        <ele>148</ele>
        <time>2022-10-06T09:28:27Z</time>
      </trkpt>
      <trkpt lat="48.69013" lon="1.96354">
        <ele>148.7</ele>
        <time>2022-10-06T09:28:38Z</time>
      </trkpt>
      <trkpt lat="48.69012" lon="1.96339">
        <ele>149.2</ele>
        <time>2022-10-06T09:28:47Z</time>
      </trkpt>
      <trkpt lat="48.69015" lon="1.96354">
        <ele>149.1</ele>
        <time>2022-10-06T09:29:24Z</time>
      </trkpt>
      <trkpt lat="48.69016" lon="1.96369">
        <ele>149</ele>
        <time>2022-10-06T09:29:32Z</time>
      </trkpt>
      <trkpt lat="48.69011" lon="1.9638">
        <ele>148.3</ele>
        <time>2022-10-06T09:29:40Z</time>
      </trkpt>
      <trkpt lat="48.69004" lon="1.9639">
        <ele>147.7</ele>
        <time>2022-10-06T09:29:49Z</time>
      </trkpt>
      <trkpt lat="48.69005" lon="1.96405">
        <ele>148.8</ele>
        <time>2022-10-06T09:30:01Z</time>
      </trkpt>
      <trkpt lat="48.69013" lon="1.96414">
        <ele>150.3</ele>
        <time>2022-10-06T09:30:14Z</time>
      </trkpt>
      <trkpt lat="48.69018" lon="1.96427">
        <ele>151.5</ele>
        <time>2022-10-06T09:30:25Z</time>
      </trkpt>
      <trkpt lat="48.69025" lon="1.96434">
        <ele>152.9</ele>
        <time>2022-10-06T09:30:32Z</time>
      </trkpt>
      <trkpt lat="48.69034" lon="1.9644">
        <ele>154.6</ele>
        <time>2022-10-06T09:30:40Z</time>
      </trkpt>
      <trkpt lat="48.69042" lon="1.96449">
        <ele>156.1</ele>
        <time>2022-10-06T09:30:48Z</time>
      </trkpt>
      <trkpt lat="48.6905" lon="1.96457">
        <ele>157.3</ele>
        <time>2022-10-06T09:30:55Z</time>
      </trkpt>
      <trkpt lat="48.69059" lon="1.96465">
        <ele>158.4</ele>
        <time>2022-10-06T09:31:03Z</time>
      </trkpt>
      <trkpt lat="48.69068" lon="1.96465">
        <ele>159.5</ele>
        <time>2022-10-06T09:31:10Z</time>
      </trkpt>
      <trkpt lat="48.69076" lon="1.96457">
        <ele>160.6</ele>
        <time>2022-10-06T09:31:22Z</time>
      </trkpt>
      <trkpt lat="48.6908" lon="1.96443">
        <ele>161.5</ele>
        <time>2022-10-06T09:31:32Z</time>
      </trkpt>
      <trkpt lat="48.69082" lon="1.96429">
        <ele>162.3</ele>
        <time>2022-10-06T09:31:39Z</time>
      </trkpt>
      <trkpt lat="48.69083" lon="1.96413">
        <ele>163.2</ele>
        <time>2022-10-06T09:31:47Z</time>
      </trkpt>
      <trkpt lat="48.69084" lon="1.96398">
        <ele>164.4</ele>
        <time>2022-10-06T09:31:55Z</time>
      </trkpt>
      <trkpt lat="48.69082" lon="1.96384">
        <ele>164.8</ele>
        <time>2022-10-06T09:32:02Z</time>
      </trkpt>
      <trkpt lat="48.6908" lon="1.96371">
        <ele>164.7</ele>
        <time>2022-10-06T09:32:10Z</time>
      </trkpt>
      <trkpt lat="48.69076" lon="1.96358">
        <ele>164.5</ele>
        <time>2022-10-06T09:32:17Z</time>
      </trkpt>
      <trkpt lat="48.69074" lon="1.96343">
        <ele>164.8</ele>
        <time>2022-10-06T09:32:23Z</time>
      </trkpt>
      <trkpt lat="48.69074" lon="1.96329">
        <ele>165.6</ele>
        <time>2022-10-06T09:32:31Z</time>
      </trkpt>
      <trkpt lat="48.69074" lon="1.96314">
        <ele>167</ele>
        <time>2022-10-06T09:32:39Z</time>
      </trkpt>
      <trkpt lat="48.69072" lon="1.963">
        <ele>167.7</ele>
        <time>2022-10-06T09:32:45Z</time>
      </trkpt>
      <trkpt lat="48.69072" lon="1.96285">
        <ele>168.4</ele>
        <time>2022-10-06T09:32:53Z</time>
      </trkpt>
      <trkpt lat="48.6907" lon="1.96271">
        <ele>168.6</ele>
        <time>2022-10-06T09:33:00Z</time>
      </trkpt>
      <trkpt lat="48.69072" lon="1.96257">
        <ele>168.8</ele>
        <time>2022-10-06T09:33:08Z</time>
      </trkpt>
      <trkpt lat="48.69074" lon="1.96243">
        <ele>169</ele>
        <time>2022-10-06T09:33:16Z</time>
      </trkpt>
      <trkpt lat="48.69083" lon="1.96239">
        <ele>169.9</ele>
        <time>2022-10-06T09:34:34Z</time>
      </trkpt>
      <trkpt lat="48.6909" lon="1.96248">
        <ele>170.2</ele>
        <time>2022-10-06T09:34:44Z</time>
      </trkpt>
      <trkpt lat="48.69096" lon="1.96259">
        <ele>170.5</ele>
        <time>2022-10-06T09:34:52Z</time>
      </trkpt>
      <trkpt lat="48.691" lon="1.96271">
        <ele>170.6</ele>
        <time>2022-10-06T09:34:59Z</time>
      </trkpt>
      <trkpt lat="48.69105" lon="1.96285">
        <ele>170.5</ele>
        <time>2022-10-06T09:35:07Z</time>
      </trkpt>
      <trkpt lat="48.69108" lon="1.96299">
        <ele>170.1</ele>
        <time>2022-10-06T09:35:13Z</time>
      </trkpt>
      <trkpt lat="48.69113" lon="1.96313">
        <ele>169.7</ele>
        <time>2022-10-06T09:35:19Z</time>
      </trkpt>
      <trkpt lat="48.69118" lon="1.96325">
        <ele>169.3</ele>
        <time>2022-10-06T09:35:26Z</time>
      </trkpt>
      <trkpt lat="48.69123" lon="1.96338">
        <ele>168.9</ele>
        <time>2022-10-06T09:35:33Z</time>
      </trkpt>
      <trkpt lat="48.6913" lon="1.96349">
        <ele>168.6</ele>
        <time>2022-10-06T09:35:41Z</time>
      </trkpt>
      <trkpt lat="48.6914" lon="1.96354">
        <ele>168.2</ele>
        <time>2022-10-06T09:35:48Z</time>
      </trkpt>
      <trkpt lat="48.69149" lon="1.96358">
        <ele>167.8</ele>
        <time>2022-10-06T09:35:54Z</time>
      </trkpt>
      <trkpt lat="48.69157" lon="1.96363">
        <ele>167.3</ele>
        <time>2022-10-06T09:36:00Z</time>
      </trkpt>
      <trkpt lat="48.69167" lon="1.96365">
        <ele>166.9</ele>
        <time>2022-10-06T09:36:08Z</time>
      </trkpt>
      <trkpt lat="48.69177" lon="1.96365">
        <ele>166.5</ele>
        <time>2022-10-06T09:36:16Z</time>
      </trkpt>
      <trkpt lat="48.69186" lon="1.96364">
        <ele>166.2</ele>
        <time>2022-10-06T09:36:22Z</time>
      </trkpt>
      <trkpt lat="48.69195" lon="1.96369">
        <ele>165.7</ele>
        <time>2022-10-06T09:36:32Z</time>
      </trkpt>
      <trkpt lat="48.69204" lon="1.96374">
        <ele>164.7</ele>
        <time>2022-10-06T09:36:39Z</time>
      </trkpt>
      <trkpt lat="48.69213" lon="1.96369">
        <ele>164.2</ele>
        <time>2022-10-06T09:36:46Z</time>
      </trkpt>
      <trkpt lat="48.69222" lon="1.96363">
        <ele>163.9</ele>
        <time>2022-10-06T09:36:53Z</time>
      </trkpt>
      <trkpt lat="48.69232" lon="1.96359">
        <ele>163.5</ele>
        <time>2022-10-06T09:37:02Z</time>
      </trkpt>
      <trkpt lat="48.69241" lon="1.96352">
        <ele>163.5</ele>
        <time>2022-10-06T09:37:09Z</time>
      </trkpt>
      <trkpt lat="48.69248" lon="1.96343">
        <ele>164</ele>
        <time>2022-10-06T09:37:16Z</time>
      </trkpt>
      <trkpt lat="48.69255" lon="1.96333">
        <ele>164.7</ele>
        <time>2022-10-06T09:37:22Z</time>
      </trkpt>
      <trkpt lat="48.69259" lon="1.9632">
        <ele>165.3</ele>
        <time>2022-10-06T09:37:29Z</time>
      </trkpt>
      <trkpt lat="48.6926" lon="1.96305">
        <ele>166.3</ele>
        <time>2022-10-06T09:37:36Z</time>
      </trkpt>
      <trkpt lat="48.69261" lon="1.96291">
        <ele>166.7</ele>
        <time>2022-10-06T09:37:42Z</time>
      </trkpt>
      <trkpt lat="48.69264" lon="1.96277">
        <ele>167</ele>
        <time>2022-10-06T09:37:48Z</time>
      </trkpt>
      <trkpt lat="48.69267" lon="1.96262">
        <ele>167.2</ele>
        <time>2022-10-06T09:37:56Z</time>
      </trkpt>
      <trkpt lat="48.69266" lon="1.96247">
        <ele>167.5</ele>
        <time>2022-10-06T09:38:03Z</time>
      </trkpt>
      <trkpt lat="48.69261" lon="1.96233">
        <ele>168</ele>
        <time>2022-10-06T09:38:10Z</time>
      </trkpt>
      <trkpt lat="48.69257" lon="1.96219">
        <ele>168.5</ele>
        <time>2022-10-06T09:38:18Z</time>
      </trkpt>
      <trkpt lat="48.69254" lon="1.96204">
        <ele>168.7</ele>
        <time>2022-10-06T09:38:24Z</time>
      </trkpt>
      <trkpt lat="48.6925" lon="1.96191">
        <ele>168.9</ele>
        <time>2022-10-06T09:38:30Z</time>
      </trkpt>
      <trkpt lat="48.69245" lon="1.96179">
        <ele>168.7</ele>
        <time>2022-10-06T09:38:36Z</time>
      </trkpt>
      <trkpt lat="48.69237" lon="1.96171">
        <ele>169</ele>
        <time>2022-10-06T09:38:43Z</time>
      </trkpt>
      <trkpt lat="48.69228" lon="1.96165">
        <ele>169.5</ele>
        <time>2022-10-06T09:38:50Z</time>
      </trkpt>
      <trkpt lat="48.6922" lon="1.96155">
        <ele>169.7</ele>
        <time>2022-10-06T09:38:57Z</time>
      </trkpt>
      <trkpt lat="48.69212" lon="1.96148">
        <ele>169.9</ele>
        <time>2022-10-06T09:39:04Z</time>
      </trkpt>
      <trkpt lat="48.69203" lon="1.96142">
        <ele>170.4</ele>
        <time>2022-10-06T09:39:12Z</time>
      </trkpt>
      <trkpt lat="48.69193" lon="1.96139">
        <ele>171</ele>
        <time>2022-10-06T09:39:21Z</time>
      </trkpt>
      <trkpt lat="48.69185" lon="1.96132">
        <ele>171.3</ele>
        <time>2022-10-06T09:39:27Z</time>
      </trkpt>
      <trkpt lat="48.69181" lon="1.9612">
        <ele>171.5</ele>
        <time>2022-10-06T09:39:34Z</time>
      </trkpt>
      <trkpt lat="48.69178" lon="1.96105">
        <ele>171.6</ele>
        <time>2022-10-06T09:39:42Z</time>
      </trkpt>
      <trkpt lat="48.69173" lon="1.96093">
        <ele>171.8</ele>
        <time>2022-10-06T09:39:48Z</time>
      </trkpt>
      <trkpt lat="48.69168" lon="1.96081">
        <ele>172</ele>
        <time>2022-10-06T09:39:54Z</time>
      </trkpt>
      <trkpt lat="48.69162" lon="1.96067">
        <ele>172.1</ele>
        <time>2022-10-06T09:40:01Z</time>
      </trkpt>
      <trkpt lat="48.69155" lon="1.96056">
        <ele>172.4</ele>
        <time>2022-10-06T09:40:07Z</time>
      </trkpt>
      <trkpt lat="48.6915" lon="1.96044">
        <ele>172.6</ele>
        <time>2022-10-06T09:40:14Z</time>
      </trkpt>
      <trkpt lat="48.69143" lon="1.96032">
        <ele>172.8</ele>
        <time>2022-10-06T09:40:25Z</time>
      </trkpt>
    </trkseg>
  </trk>
</gpx>